<?xml version="1.0" encoding="UTF-8" standalone="no" ?>
<gpx xmlns="http://www.topografix.com/GPX/1/1" xmlns:xsi="http://www.w3.org/2001/XMLSchema-instance" xsi:schemaLocation="http://www.topografix.com/GPX/1/1 http://www.topografix.com/GPX/1/1/gpx.xsd" version="1.1" creator="VisuGPX - https://www.visugpx.com">
  <metadata>
    <name>106SG73-7426291-</name>
    <desc><![CDATA[
12-19]]></desc>
  </metadata>
  <trk>
    <name><![CDATA[106SG73-7426291-]]></name>
    <trkseg>
      <trkpt lat="46.69849" lon="-1.93398">
        <ele>5</ele>
        <time>2018-04-20T14:54:58Z</time>
      </trkpt>
      <trkpt lat="46.69899" lon="-1.93381">
        <ele>5</ele>
        <time>2018-04-20T14:55:58Z</time>
      </trkpt>
      <trkpt lat="46.69906" lon="-1.93381">
        <ele>5</ele>
        <time>2018-04-20T14:56:58Z</time>
      </trkpt>
      <trkpt lat="46.6991" lon="-1.93375">
        <ele>5</ele>
        <time>2018-04-20T14:57:58Z</time>
      </trkpt>
      <trkpt lat="46.69915" lon="-1.93379">
        <ele>4</ele>
        <time>2018-04-20T14:58:58Z</time>
      </trkpt>
      <trkpt lat="46.69915" lon="-1.93381">
        <ele>4</ele>
        <time>2018-04-20T14:59:58Z</time>
      </trkpt>
      <trkpt lat="46.6994" lon="-1.9338">
        <ele>4</ele>
        <time>2018-04-20T15:00:58Z</time>
      </trkpt>
      <trkpt lat="46.69955" lon="-1.93377">
        <ele>4</ele>
        <time>2018-04-20T15:01:58Z</time>
      </trkpt>
      <trkpt lat="46.69973" lon="-1.93368">
        <ele>4</ele>
        <time>2018-04-20T15:02:58Z</time>
      </trkpt>
      <trkpt lat="46.69981" lon="-1.93367">
        <ele>3</ele>
        <time>2018-04-20T15:03:58Z</time>
      </trkpt>
      <trkpt lat="46.70018" lon="-1.93384">
        <ele>3</ele>
        <time>2018-04-20T15:04:58Z</time>
      </trkpt>
      <trkpt lat="46.70026" lon="-1.93389">
        <ele>3</ele>
        <time>2018-04-20T15:05:58Z</time>
      </trkpt>
      <trkpt lat="46.70036" lon="-1.934">
        <ele>2</ele>
        <time>2018-04-20T15:06:58Z</time>
      </trkpt>
      <trkpt lat="46.7005" lon="-1.93406">
        <ele>2</ele>
        <time>2018-04-20T15:07:58Z</time>
      </trkpt>
      <trkpt lat="46.70057" lon="-1.93396">
        <ele>2</ele>
        <time>2018-04-20T15:08:58Z</time>
      </trkpt>
      <trkpt lat="46.70064" lon="-1.93406">
        <ele>2</ele>
        <time>2018-04-20T15:09:58Z</time>
      </trkpt>
      <trkpt lat="46.70086" lon="-1.93406">
        <ele>2</ele>
        <time>2018-04-20T15:10:58Z</time>
      </trkpt>
      <trkpt lat="46.70113" lon="-1.93385">
        <ele>2</ele>
        <time>2018-04-20T15:11:58Z</time>
      </trkpt>
      <trkpt lat="46.70116" lon="-1.93375">
        <ele>2</ele>
        <time>2018-04-20T15:12:58Z</time>
      </trkpt>
      <trkpt lat="46.70124" lon="-1.93369">
        <ele>1</ele>
        <time>2018-04-20T15:13:58Z</time>
      </trkpt>
      <trkpt lat="46.70131" lon="-1.93369">
        <ele>2</ele>
        <time>2018-04-20T15:14:58Z</time>
      </trkpt>
      <trkpt lat="46.70142" lon="-1.93375">
        <ele>1</ele>
        <time>2018-04-20T15:15:58Z</time>
      </trkpt>
      <trkpt lat="46.70164" lon="-1.93377">
        <ele>1</ele>
        <time>2018-04-20T15:16:58Z</time>
      </trkpt>
      <trkpt lat="46.70163" lon="-1.93385">
        <ele>1</ele>
        <time>2018-04-20T15:17:58Z</time>
      </trkpt>
      <trkpt lat="46.7015" lon="-1.93394">
        <ele>1</ele>
        <time>2018-04-20T15:18:58Z</time>
      </trkpt>
      <trkpt lat="46.70145" lon="-1.93407">
        <ele>1</ele>
        <time>2018-04-20T15:19:58Z</time>
      </trkpt>
      <trkpt lat="46.70145" lon="-1.93429">
        <ele>1</ele>
        <time>2018-04-20T15:20:58Z</time>
      </trkpt>
      <trkpt lat="46.70151" lon="-1.93476">
        <ele>1</ele>
        <time>2018-04-20T15:21:58Z</time>
      </trkpt>
      <trkpt lat="46.7015" lon="-1.93486">
        <ele>1</ele>
        <time>2018-04-20T15:22:58Z</time>
      </trkpt>
      <trkpt lat="46.70196" lon="-1.93684">
        <ele>2</ele>
        <time>2018-04-20T15:23:58Z</time>
      </trkpt>
      <trkpt lat="46.70234" lon="-1.93821">
        <ele>4</ele>
        <time>2018-04-20T15:24:58Z</time>
      </trkpt>
      <trkpt lat="46.7025" lon="-1.93868">
        <ele>3</ele>
        <time>2018-04-20T15:25:58Z</time>
      </trkpt>
      <trkpt lat="46.70255" lon="-1.93879">
        <ele>3</ele>
        <time>2018-04-20T15:26:58Z</time>
      </trkpt>
      <trkpt lat="46.70272" lon="-1.93894">
        <ele>3</ele>
        <time>2018-04-20T15:27:58Z</time>
      </trkpt>
      <trkpt lat="46.70275" lon="-1.93907">
        <ele>2</ele>
        <time>2018-04-20T15:28:58Z</time>
      </trkpt>
      <trkpt lat="46.70274" lon="-1.93918">
        <ele>2</ele>
        <time>2018-04-20T15:29:58Z</time>
      </trkpt>
      <trkpt lat="46.70269" lon="-1.93927">
        <ele>2</ele>
        <time>2018-04-20T15:30:58Z</time>
      </trkpt>
      <trkpt lat="46.70263" lon="-1.93932">
        <ele>2</ele>
        <time>2018-04-20T15:31:58Z</time>
      </trkpt>
      <trkpt lat="46.70256" lon="-1.93932">
        <ele>2</ele>
        <time>2018-04-20T15:32:58Z</time>
      </trkpt>
      <trkpt lat="46.70251" lon="-1.9393">
        <ele>2</ele>
        <time>2018-04-20T15:33:58Z</time>
      </trkpt>
      <trkpt lat="46.7023" lon="-1.9393">
        <ele>2</ele>
        <time>2018-04-20T15:34:58Z</time>
      </trkpt>
      <trkpt lat="46.70202" lon="-1.93936">
        <ele>3</ele>
        <time>2018-04-20T15:35:58Z</time>
      </trkpt>
      <trkpt lat="46.70177" lon="-1.93942">
        <ele>3</ele>
        <time>2018-04-20T15:36:58Z</time>
      </trkpt>
      <trkpt lat="46.70161" lon="-1.9395">
        <ele>3</ele>
        <time>2018-04-20T15:37:58Z</time>
      </trkpt>
      <trkpt lat="46.70153" lon="-1.93956">
        <ele>3</ele>
        <time>2018-04-20T15:38:58Z</time>
      </trkpt>
      <trkpt lat="46.7015" lon="-1.93956">
        <ele>3</ele>
        <time>2018-04-20T15:39:58Z</time>
      </trkpt>
      <trkpt lat="46.70151" lon="-1.93989">
        <ele>2</ele>
        <time>2018-04-20T15:40:58Z</time>
      </trkpt>
      <trkpt lat="46.70181" lon="-1.94236">
        <ele>5</ele>
        <time>2018-04-20T15:41:58Z</time>
      </trkpt>
      <trkpt lat="46.70183" lon="-1.94268">
        <ele>5</ele>
        <time>2018-04-20T15:42:58Z</time>
      </trkpt>
      <trkpt lat="46.70168" lon="-1.94427">
        <ele>4</ele>
        <time>2018-04-20T15:43:58Z</time>
      </trkpt>
      <trkpt lat="46.70165" lon="-1.94576">
        <ele>4</ele>
        <time>2018-04-20T15:44:58Z</time>
      </trkpt>
      <trkpt lat="46.70165" lon="-1.94656">
        <ele>4</ele>
        <time>2018-04-20T15:45:58Z</time>
      </trkpt>
      <trkpt lat="46.7017" lon="-1.94658">
        <ele>4</ele>
        <time>2018-04-20T15:46:58Z</time>
      </trkpt>
      <trkpt lat="46.70174" lon="-1.94664">
        <ele>4</ele>
        <time>2018-04-20T15:47:58Z</time>
      </trkpt>
      <trkpt lat="46.70175" lon="-1.94674">
        <ele>4</ele>
        <time>2018-04-20T15:48:58Z</time>
      </trkpt>
      <trkpt lat="46.70172" lon="-1.94682">
        <ele>4</ele>
        <time>2018-04-20T15:49:58Z</time>
      </trkpt>
      <trkpt lat="46.70167" lon="-1.94686">
        <ele>4</ele>
        <time>2018-04-20T15:50:58Z</time>
      </trkpt>
      <trkpt lat="46.70164" lon="-1.94733">
        <ele>3</ele>
        <time>2018-04-20T15:51:58Z</time>
      </trkpt>
      <trkpt lat="46.70158" lon="-1.94877">
        <ele>2</ele>
        <time>2018-04-20T15:52:58Z</time>
      </trkpt>
      <trkpt lat="46.70155" lon="-1.95036">
        <ele>4</ele>
        <time>2018-04-20T15:53:58Z</time>
      </trkpt>
      <trkpt lat="46.70155" lon="-1.95079">
        <ele>5</ele>
        <time>2018-04-20T15:54:58Z</time>
      </trkpt>
      <trkpt lat="46.70157" lon="-1.95109">
        <ele>5</ele>
        <time>2018-04-20T15:55:58Z</time>
      </trkpt>
      <trkpt lat="46.70157" lon="-1.95109">
        <ele>5</ele>
        <time>2018-04-20T15:56:58Z</time>
      </trkpt>
      <trkpt lat="46.70163" lon="-1.95164">
        <ele>6</ele>
        <time>2018-04-20T15:57:58Z</time>
      </trkpt>
      <trkpt lat="46.70162" lon="-1.95255">
        <ele>5</ele>
        <time>2018-04-20T15:58:58Z</time>
      </trkpt>
      <trkpt lat="46.70141" lon="-1.9539">
        <ele>8</ele>
        <time>2018-04-20T15:59:58Z</time>
      </trkpt>
      <trkpt lat="46.70137" lon="-1.95441">
        <ele>9</ele>
        <time>2018-04-20T16:00:58Z</time>
      </trkpt>
      <trkpt lat="46.70142" lon="-1.95491">
        <ele>9</ele>
        <time>2018-04-20T16:01:58Z</time>
      </trkpt>
      <trkpt lat="46.70159" lon="-1.95594">
        <ele>10</ele>
        <time>2018-04-20T16:02:58Z</time>
      </trkpt>
      <trkpt lat="46.70163" lon="-1.95628">
        <ele>11</ele>
        <time>2018-04-20T16:03:58Z</time>
      </trkpt>
      <trkpt lat="46.70167" lon="-1.95628">
        <ele>11</ele>
        <time>2018-04-20T16:04:58Z</time>
      </trkpt>
      <trkpt lat="46.70173" lon="-1.95636">
        <ele>11</ele>
        <time>2018-04-20T16:05:58Z</time>
      </trkpt>
      <trkpt lat="46.70174" lon="-1.95645">
        <ele>11</ele>
        <time>2018-04-20T16:06:58Z</time>
      </trkpt>
      <trkpt lat="46.70171" lon="-1.95654">
        <ele>12</ele>
        <time>2018-04-20T16:07:58Z</time>
      </trkpt>
      <trkpt lat="46.70168" lon="-1.95656">
        <ele>12</ele>
        <time>2018-04-20T16:08:58Z</time>
      </trkpt>
      <trkpt lat="46.70184" lon="-1.95714">
        <ele>12</ele>
        <time>2018-04-20T16:09:58Z</time>
      </trkpt>
      <trkpt lat="46.70208" lon="-1.95782">
        <ele>12</ele>
        <time>2018-04-20T16:10:58Z</time>
      </trkpt>
      <trkpt lat="46.70227" lon="-1.95815">
        <ele>12</ele>
        <time>2018-04-20T16:11:58Z</time>
      </trkpt>
      <trkpt lat="46.70251" lon="-1.95847">
        <ele>12</ele>
        <time>2018-04-20T16:12:58Z</time>
      </trkpt>
      <trkpt lat="46.70273" lon="-1.95874">
        <ele>13</ele>
        <time>2018-04-20T16:13:58Z</time>
      </trkpt>
      <trkpt lat="46.70345" lon="-1.95942">
        <ele>14</ele>
        <time>2018-04-20T16:14:58Z</time>
      </trkpt>
      <trkpt lat="46.70349" lon="-1.95936">
        <ele>14</ele>
        <time>2018-04-20T16:15:58Z</time>
      </trkpt>
      <trkpt lat="46.70355" lon="-1.95936">
        <ele>14</ele>
        <time>2018-04-20T16:16:58Z</time>
      </trkpt>
      <trkpt lat="46.70359" lon="-1.95943">
        <ele>15</ele>
        <time>2018-04-20T16:17:58Z</time>
      </trkpt>
      <trkpt lat="46.70359" lon="-1.95952">
        <ele>15</ele>
        <time>2018-04-20T16:18:58Z</time>
      </trkpt>
      <trkpt lat="46.70461" lon="-1.96012">
        <ele>15</ele>
        <time>2018-04-20T16:19:58Z</time>
      </trkpt>
      <trkpt lat="46.70494" lon="-1.96027">
        <ele>15</ele>
        <time>2018-04-20T16:20:58Z</time>
      </trkpt>
      <trkpt lat="46.70592" lon="-1.96057">
        <ele>16</ele>
        <time>2018-04-20T16:21:58Z</time>
      </trkpt>
      <trkpt lat="46.70704" lon="-1.96073">
        <ele>16</ele>
        <time>2018-04-20T16:22:58Z</time>
      </trkpt>
      <trkpt lat="46.70732" lon="-1.96062">
        <ele>16</ele>
        <time>2018-04-20T16:23:58Z</time>
      </trkpt>
      <trkpt lat="46.70737" lon="-1.96069">
        <ele>16</ele>
        <time>2018-04-20T16:24:58Z</time>
      </trkpt>
      <trkpt lat="46.70737" lon="-1.96077">
        <ele>16</ele>
        <time>2018-04-20T16:25:58Z</time>
      </trkpt>
      <trkpt lat="46.70824" lon="-1.96083">
        <ele>15</ele>
        <time>2018-04-20T16:26:58Z</time>
      </trkpt>
      <trkpt lat="46.7097" lon="-1.96097">
        <ele>16</ele>
        <time>2018-04-20T16:27:58Z</time>
      </trkpt>
      <trkpt lat="46.70973" lon="-1.9609">
        <ele>16</ele>
        <time>2018-04-20T16:28:58Z</time>
      </trkpt>
      <trkpt lat="46.7098" lon="-1.96091">
        <ele>16</ele>
        <time>2018-04-20T16:29:58Z</time>
      </trkpt>
      <trkpt lat="46.70983" lon="-1.961">
        <ele>16</ele>
        <time>2018-04-20T16:30:58Z</time>
      </trkpt>
      <trkpt lat="46.70981" lon="-1.96105">
        <ele>16</ele>
        <time>2018-04-20T16:31:58Z</time>
      </trkpt>
      <trkpt lat="46.70977" lon="-1.96108">
        <ele>16</ele>
        <time>2018-04-20T16:32:58Z</time>
      </trkpt>
      <trkpt lat="46.70978" lon="-1.96126">
        <ele>15</ele>
        <time>2018-04-20T16:33:58Z</time>
      </trkpt>
      <trkpt lat="46.70981" lon="-1.96248">
        <ele>13</ele>
        <time>2018-04-20T16:34:58Z</time>
      </trkpt>
      <trkpt lat="46.70981" lon="-1.96307">
        <ele>13</ele>
        <time>2018-04-20T16:35:58Z</time>
      </trkpt>
      <trkpt lat="46.70979" lon="-1.96353">
        <ele>13</ele>
        <time>2018-04-20T16:36:58Z</time>
      </trkpt>
      <trkpt lat="46.70972" lon="-1.96401">
        <ele>14</ele>
        <time>2018-04-20T16:37:58Z</time>
      </trkpt>
      <trkpt lat="46.70959" lon="-1.96471">
        <ele>14</ele>
        <time>2018-04-20T16:38:58Z</time>
      </trkpt>
      <trkpt lat="46.70944" lon="-1.96518">
        <ele>14</ele>
        <time>2018-04-20T16:39:58Z</time>
      </trkpt>
      <trkpt lat="46.70939" lon="-1.96593">
        <ele>13</ele>
        <time>2018-04-20T16:40:58Z</time>
      </trkpt>
      <trkpt lat="46.70942" lon="-1.96622">
        <ele>13</ele>
        <time>2018-04-20T16:41:58Z</time>
      </trkpt>
      <trkpt lat="46.70945" lon="-1.96631">
        <ele>13</ele>
        <time>2018-04-20T16:42:58Z</time>
      </trkpt>
      <trkpt lat="46.70945" lon="-1.96631">
        <ele>13</ele>
        <time>2018-04-20T16:43:58Z</time>
      </trkpt>
      <trkpt lat="46.70985" lon="-1.96728">
        <ele>13</ele>
        <time>2018-04-20T16:44:58Z</time>
      </trkpt>
      <trkpt lat="46.71" lon="-1.96751">
        <ele>13</ele>
        <time>2018-04-20T16:45:58Z</time>
      </trkpt>
      <trkpt lat="46.71007" lon="-1.96749">
        <ele>13</ele>
        <time>2018-04-20T16:46:58Z</time>
      </trkpt>
      <trkpt lat="46.71015" lon="-1.9675">
        <ele>13</ele>
        <time>2018-04-20T16:47:58Z</time>
      </trkpt>
      <trkpt lat="46.71024" lon="-1.9676">
        <ele>13</ele>
        <time>2018-04-20T16:48:58Z</time>
      </trkpt>
      <trkpt lat="46.71045" lon="-1.96769">
        <ele>13</ele>
        <time>2018-04-20T16:49:58Z</time>
      </trkpt>
      <trkpt lat="46.71237" lon="-1.96768">
        <ele>15</ele>
        <time>2018-04-20T16:50:58Z</time>
      </trkpt>
      <trkpt lat="46.7125" lon="-1.96763">
        <ele>15</ele>
        <time>2018-04-20T16:51:58Z</time>
      </trkpt>
      <trkpt lat="46.71286" lon="-1.96755">
        <ele>16</ele>
        <time>2018-04-20T16:52:58Z</time>
      </trkpt>
      <trkpt lat="46.71324" lon="-1.96755">
        <ele>17</ele>
        <time>2018-04-20T16:53:58Z</time>
      </trkpt>
      <trkpt lat="46.71366" lon="-1.96764">
        <ele>15</ele>
        <time>2018-04-20T16:54:58Z</time>
      </trkpt>
      <trkpt lat="46.71401" lon="-1.96782">
        <ele>14</ele>
        <time>2018-04-20T16:55:58Z</time>
      </trkpt>
      <trkpt lat="46.71406" lon="-1.96782">
        <ele>14</ele>
        <time>2018-04-20T16:56:58Z</time>
      </trkpt>
      <trkpt lat="46.71473" lon="-1.96803">
        <ele>13</ele>
        <time>2018-04-20T16:57:58Z</time>
      </trkpt>
      <trkpt lat="46.71501" lon="-1.96808">
        <ele>13</ele>
        <time>2018-04-20T16:58:58Z</time>
      </trkpt>
      <trkpt lat="46.71575" lon="-1.96812">
        <ele>14</ele>
        <time>2018-04-20T16:59:58Z</time>
      </trkpt>
      <trkpt lat="46.71589" lon="-1.9681">
        <ele>14</ele>
        <time>2018-04-20T17:00:58Z</time>
      </trkpt>
      <trkpt lat="46.71649" lon="-1.96774">
        <ele>14</ele>
        <time>2018-04-20T17:01:58Z</time>
      </trkpt>
      <trkpt lat="46.71664" lon="-1.96774">
        <ele>14</ele>
        <time>2018-04-20T17:02:58Z</time>
      </trkpt>
      <trkpt lat="46.71681" lon="-1.96777">
        <ele>14</ele>
        <time>2018-04-20T17:03:58Z</time>
      </trkpt>
      <trkpt lat="46.71702" lon="-1.96789">
        <ele>13</ele>
        <time>2018-04-20T17:04:58Z</time>
      </trkpt>
      <trkpt lat="46.71743" lon="-1.96818">
        <ele>13</ele>
        <time>2018-04-20T17:05:58Z</time>
      </trkpt>
      <trkpt lat="46.71803" lon="-1.96841">
        <ele>14</ele>
        <time>2018-04-20T17:06:58Z</time>
      </trkpt>
      <trkpt lat="46.71832" lon="-1.96862">
        <ele>14</ele>
        <time>2018-04-20T17:07:58Z</time>
      </trkpt>
      <trkpt lat="46.71835" lon="-1.96866">
        <ele>14</ele>
        <time>2018-04-20T17:08:58Z</time>
      </trkpt>
      <trkpt lat="46.71876" lon="-1.9688">
        <ele>15</ele>
        <time>2018-04-20T17:09:58Z</time>
      </trkpt>
      <trkpt lat="46.71926" lon="-1.96975">
        <ele>15</ele>
        <time>2018-04-20T17:10:58Z</time>
      </trkpt>
      <trkpt lat="46.71926" lon="-1.96975">
        <ele>15</ele>
        <time>2018-04-20T17:11:58Z</time>
      </trkpt>
      <trkpt lat="46.72077" lon="-1.97262">
        <ele>9</ele>
        <time>2018-04-20T17:12:58Z</time>
      </trkpt>
      <trkpt lat="46.72398" lon="-1.97826">
        <ele>7</ele>
        <time>2018-04-20T17:13:58Z</time>
      </trkpt>
      <trkpt lat="46.72403" lon="-1.97824">
        <ele>7</ele>
        <time>2018-04-20T17:14:58Z</time>
      </trkpt>
      <trkpt lat="46.72408" lon="-1.97826">
        <ele>6</ele>
        <time>2018-04-20T17:15:58Z</time>
      </trkpt>
      <trkpt lat="46.72411" lon="-1.97832">
        <ele>6</ele>
        <time>2018-04-20T17:16:58Z</time>
      </trkpt>
      <trkpt lat="46.72411" lon="-1.97839">
        <ele>6</ele>
        <time>2018-04-20T17:17:58Z</time>
      </trkpt>
      <trkpt lat="46.72408" lon="-1.97845">
        <ele>7</ele>
        <time>2018-04-20T17:18:58Z</time>
      </trkpt>
      <trkpt lat="46.72452" lon="-1.97911">
        <ele>8</ele>
        <time>2018-04-20T17:19:58Z</time>
      </trkpt>
      <trkpt lat="46.72479" lon="-1.97942">
        <ele>8</ele>
        <time>2018-04-20T17:20:58Z</time>
      </trkpt>
      <trkpt lat="46.725" lon="-1.97964">
        <ele>8</ele>
        <time>2018-04-20T17:21:58Z</time>
      </trkpt>
      <trkpt lat="46.72736" lon="-1.98125">
        <ele>11</ele>
        <time>2018-04-20T17:22:58Z</time>
      </trkpt>
      <trkpt lat="46.73163" lon="-1.98309">
        <ele>12</ele>
        <time>2018-04-20T17:23:58Z</time>
      </trkpt>
      <trkpt lat="46.73184" lon="-1.98324">
        <ele>12</ele>
        <time>2018-04-20T17:24:58Z</time>
      </trkpt>
      <trkpt lat="46.73333" lon="-1.98467">
        <ele>10</ele>
        <time>2018-04-20T17:25:58Z</time>
      </trkpt>
      <trkpt lat="46.73352" lon="-1.98492">
        <ele>10</ele>
        <time>2018-04-20T17:26:58Z</time>
      </trkpt>
      <trkpt lat="46.73366" lon="-1.98516">
        <ele>9</ele>
        <time>2018-04-20T17:27:58Z</time>
      </trkpt>
      <trkpt lat="46.73375" lon="-1.9854">
        <ele>9</ele>
        <time>2018-04-20T17:28:58Z</time>
      </trkpt>
      <trkpt lat="46.73382" lon="-1.98567">
        <ele>9</ele>
        <time>2018-04-20T17:29:58Z</time>
      </trkpt>
      <trkpt lat="46.73389" lon="-1.98647">
        <ele>9</ele>
        <time>2018-04-20T17:30:58Z</time>
      </trkpt>
      <trkpt lat="46.73394" lon="-1.98674">
        <ele>9</ele>
        <time>2018-04-20T17:31:58Z</time>
      </trkpt>
      <trkpt lat="46.73401" lon="-1.98697">
        <ele>9</ele>
        <time>2018-04-20T17:32:58Z</time>
      </trkpt>
      <trkpt lat="46.73407" lon="-1.98711">
        <ele>9</ele>
        <time>2018-04-20T17:33:58Z</time>
      </trkpt>
      <trkpt lat="46.7342" lon="-1.98729">
        <ele>9</ele>
        <time>2018-04-20T17:34:58Z</time>
      </trkpt>
      <trkpt lat="46.73548" lon="-1.98858">
        <ele>7</ele>
        <time>2018-04-20T17:35:58Z</time>
      </trkpt>
      <trkpt lat="46.73718" lon="-1.99022">
        <ele>8</ele>
        <time>2018-04-20T17:36:58Z</time>
      </trkpt>
      <trkpt lat="46.73868" lon="-1.99171">
        <ele>7</ele>
        <time>2018-04-20T17:37:58Z</time>
      </trkpt>
      <trkpt lat="46.73937" lon="-1.99228">
        <ele>8</ele>
        <time>2018-04-20T17:38:58Z</time>
      </trkpt>
      <trkpt lat="46.73969" lon="-1.99248">
        <ele>9</ele>
        <time>2018-04-20T17:39:58Z</time>
      </trkpt>
      <trkpt lat="46.7401" lon="-1.99263">
        <ele>9</ele>
        <time>2018-04-20T17:40:58Z</time>
      </trkpt>
      <trkpt lat="46.74169" lon="-1.99283">
        <ele>5</ele>
        <time>2018-04-20T17:41:58Z</time>
      </trkpt>
      <trkpt lat="46.7418" lon="-1.9929">
        <ele>5</ele>
        <time>2018-04-20T17:42:58Z</time>
      </trkpt>
      <trkpt lat="46.74187" lon="-1.99282">
        <ele>4</ele>
        <time>2018-04-20T17:43:58Z</time>
      </trkpt>
      <trkpt lat="46.74196" lon="-1.99281">
        <ele>4</ele>
        <time>2018-04-20T17:44:58Z</time>
      </trkpt>
      <trkpt lat="46.74204" lon="-1.99288">
        <ele>4</ele>
        <time>2018-04-20T17:45:58Z</time>
      </trkpt>
      <trkpt lat="46.74208" lon="-1.99299">
        <ele>5</ele>
        <time>2018-04-20T17:46:58Z</time>
      </trkpt>
      <trkpt lat="46.74208" lon="-1.99306">
        <ele>5</ele>
        <time>2018-04-20T17:47:58Z</time>
      </trkpt>
      <trkpt lat="46.74207" lon="-1.99312">
        <ele>5</ele>
        <time>2018-04-20T17:48:58Z</time>
      </trkpt>
      <trkpt lat="46.74202" lon="-1.99322">
        <ele>5</ele>
        <time>2018-04-20T17:49:58Z</time>
      </trkpt>
      <trkpt lat="46.74206" lon="-1.99331">
        <ele>6</ele>
        <time>2018-04-20T17:50:58Z</time>
      </trkpt>
      <trkpt lat="46.74211" lon="-1.99346">
        <ele>5</ele>
        <time>2018-04-20T17:51:58Z</time>
      </trkpt>
      <trkpt lat="46.74215" lon="-1.99367">
        <ele>5</ele>
        <time>2018-04-20T17:52:58Z</time>
      </trkpt>
      <trkpt lat="46.74215" lon="-1.99395">
        <ele>5</ele>
        <time>2018-04-20T17:53:58Z</time>
      </trkpt>
      <trkpt lat="46.7421" lon="-1.99439">
        <ele>5</ele>
        <time>2018-04-20T17:54:58Z</time>
      </trkpt>
      <trkpt lat="46.74202" lon="-1.99483">
        <ele>5</ele>
        <time>2018-04-20T17:55:58Z</time>
      </trkpt>
      <trkpt lat="46.74198" lon="-1.99502">
        <ele>5</ele>
        <time>2018-04-20T17:56:58Z</time>
      </trkpt>
      <trkpt lat="46.74198" lon="-1.99502">
        <ele>5</ele>
        <time>2018-04-20T17:57:58Z</time>
      </trkpt>
      <trkpt lat="46.74166" lon="-1.99622">
        <ele>6</ele>
        <time>2018-04-20T17:58:58Z</time>
      </trkpt>
      <trkpt lat="46.74156" lon="-1.99676">
        <ele>5</ele>
        <time>2018-04-20T17:59:58Z</time>
      </trkpt>
      <trkpt lat="46.74134" lon="-2.00018">
        <ele>6</ele>
        <time>2018-04-20T18:00:58Z</time>
      </trkpt>
      <trkpt lat="46.7413" lon="-2.0006">
        <ele>6</ele>
        <time>2018-04-20T18:01:58Z</time>
      </trkpt>
      <trkpt lat="46.74122" lon="-2.00117">
        <ele>6</ele>
        <time>2018-04-20T18:02:58Z</time>
      </trkpt>
      <trkpt lat="46.74114" lon="-2.00165">
        <ele>5</ele>
        <time>2018-04-20T18:03:58Z</time>
      </trkpt>
      <trkpt lat="46.74081" lon="-2.00289">
        <ele>3</ele>
        <time>2018-04-20T18:04:58Z</time>
      </trkpt>
      <trkpt lat="46.74065" lon="-2.00361">
        <ele>3</ele>
        <time>2018-04-20T18:05:58Z</time>
      </trkpt>
      <trkpt lat="46.74064" lon="-2.00392">
        <ele>3</ele>
        <time>2018-04-20T18:06:58Z</time>
      </trkpt>
      <trkpt lat="46.74066" lon="-2.00407">
        <ele>3</ele>
        <time>2018-04-20T18:07:58Z</time>
      </trkpt>
      <trkpt lat="46.74072" lon="-2.00426">
        <ele>3</ele>
        <time>2018-04-20T18:08:58Z</time>
      </trkpt>
      <trkpt lat="46.74096" lon="-2.00482">
        <ele>3</ele>
        <time>2018-04-20T18:09:58Z</time>
      </trkpt>
      <trkpt lat="46.74116" lon="-2.00521">
        <ele>3</ele>
        <time>2018-04-20T18:10:58Z</time>
      </trkpt>
      <trkpt lat="46.74151" lon="-2.00568">
        <ele>3</ele>
        <time>2018-04-20T18:11:58Z</time>
      </trkpt>
      <trkpt lat="46.74263" lon="-2.00734">
        <ele>2</ele>
        <time>2018-04-20T18:12:58Z</time>
      </trkpt>
      <trkpt lat="46.74334" lon="-2.00852">
        <ele>3</ele>
        <time>2018-04-20T18:13:58Z</time>
      </trkpt>
      <trkpt lat="46.74347" lon="-2.00869">
        <ele>3</ele>
        <time>2018-04-20T18:14:58Z</time>
      </trkpt>
      <trkpt lat="46.74368" lon="-2.0089">
        <ele>3</ele>
        <time>2018-04-20T18:15:58Z</time>
      </trkpt>
      <trkpt lat="46.74527" lon="-2.01027">
        <ele>5</ele>
        <time>2018-04-20T18:16:58Z</time>
      </trkpt>
      <trkpt lat="46.74637" lon="-2.01158">
        <ele>8</ele>
        <time>2018-04-20T18:17:58Z</time>
      </trkpt>
      <trkpt lat="46.74665" lon="-2.01185">
        <ele>8</ele>
        <time>2018-04-20T18:18:58Z</time>
      </trkpt>
      <trkpt lat="46.74683" lon="-2.012">
        <ele>8</ele>
        <time>2018-04-20T18:19:58Z</time>
      </trkpt>
      <trkpt lat="46.74799" lon="-2.01275">
        <ele>6</ele>
        <time>2018-04-20T18:20:58Z</time>
      </trkpt>
      <trkpt lat="46.7493" lon="-2.01347">
        <ele>7</ele>
        <time>2018-04-20T18:21:58Z</time>
      </trkpt>
      <trkpt lat="46.74946" lon="-2.0136">
        <ele>6</ele>
        <time>2018-04-20T18:22:58Z</time>
      </trkpt>
      <trkpt lat="46.74971" lon="-2.01393">
        <ele>5</ele>
        <time>2018-04-20T18:23:58Z</time>
      </trkpt>
      <trkpt lat="46.75018" lon="-2.01479">
        <ele>4</ele>
        <time>2018-04-20T18:24:58Z</time>
      </trkpt>
      <trkpt lat="46.75062" lon="-2.01541">
        <ele>4</ele>
        <time>2018-04-20T18:25:58Z</time>
      </trkpt>
      <trkpt lat="46.75079" lon="-2.01562">
        <ele>4</ele>
        <time>2018-04-20T18:26:58Z</time>
      </trkpt>
      <trkpt lat="46.75093" lon="-2.01579">
        <ele>4</ele>
        <time>2018-04-20T18:27:58Z</time>
      </trkpt>
      <trkpt lat="46.75111" lon="-2.01593">
        <ele>3</ele>
        <time>2018-04-20T18:28:58Z</time>
      </trkpt>
      <trkpt lat="46.75119" lon="-2.01585">
        <ele>3</ele>
        <time>2018-04-20T18:29:58Z</time>
      </trkpt>
      <trkpt lat="46.75126" lon="-2.01585">
        <ele>3</ele>
        <time>2018-04-20T18:30:58Z</time>
      </trkpt>
      <trkpt lat="46.75131" lon="-2.01589">
        <ele>3</ele>
        <time>2018-04-20T18:31:58Z</time>
      </trkpt>
      <trkpt lat="46.75136" lon="-2.01597">
        <ele>3</ele>
        <time>2018-04-20T18:32:58Z</time>
      </trkpt>
      <trkpt lat="46.75137" lon="-2.01608">
        <ele>3</ele>
        <time>2018-04-20T18:33:58Z</time>
      </trkpt>
      <trkpt lat="46.75135" lon="-2.01618">
        <ele>3</ele>
        <time>2018-04-20T18:34:58Z</time>
      </trkpt>
      <trkpt lat="46.7513" lon="-2.01625">
        <ele>4</ele>
        <time>2018-04-20T18:35:58Z</time>
      </trkpt>
      <trkpt lat="46.75173" lon="-2.017">
        <ele>4</ele>
        <time>2018-04-20T18:36:58Z</time>
      </trkpt>
      <trkpt lat="46.75253" lon="-2.01814">
        <ele>2</ele>
        <time>2018-04-20T18:37:58Z</time>
      </trkpt>
      <trkpt lat="46.75286" lon="-2.01857">
        <ele>2</ele>
        <time>2018-04-20T18:38:58Z</time>
      </trkpt>
      <trkpt lat="46.75358" lon="-2.01974">
        <ele>3</ele>
        <time>2018-04-20T18:39:58Z</time>
      </trkpt>
      <trkpt lat="46.75398" lon="-2.02021">
        <ele>2</ele>
        <time>2018-04-20T18:40:58Z</time>
      </trkpt>
      <trkpt lat="46.75462" lon="-2.02107">
        <ele>3</ele>
        <time>2018-04-20T18:41:58Z</time>
      </trkpt>
      <trkpt lat="46.75476" lon="-2.02139">
        <ele>2</ele>
        <time>2018-04-20T18:42:58Z</time>
      </trkpt>
      <trkpt lat="46.75495" lon="-2.02206">
        <ele>2</ele>
        <time>2018-04-20T18:43:58Z</time>
      </trkpt>
      <trkpt lat="46.75508" lon="-2.02233">
        <ele>1</ele>
        <time>2018-04-20T18:44:58Z</time>
      </trkpt>
      <trkpt lat="46.75524" lon="-2.02255">
        <ele>1</ele>
        <time>2018-04-20T18:45:58Z</time>
      </trkpt>
      <trkpt lat="46.75553" lon="-2.02273">
        <ele>1</ele>
        <time>2018-04-20T18:46:58Z</time>
      </trkpt>
      <trkpt lat="46.75596" lon="-2.02307">
        <ele>1</ele>
        <time>2018-04-20T18:47:58Z</time>
      </trkpt>
      <trkpt lat="46.75641" lon="-2.02348">
        <ele>4</ele>
        <time>2018-04-20T18:48:58Z</time>
      </trkpt>
      <trkpt lat="46.75652" lon="-2.02359">
        <ele>4</ele>
        <time>2018-04-20T18:49:58Z</time>
      </trkpt>
      <trkpt lat="46.75723" lon="-2.02453">
        <ele>4</ele>
        <time>2018-04-20T18:50:58Z</time>
      </trkpt>
      <trkpt lat="46.75739" lon="-2.02462">
        <ele>5</ele>
        <time>2018-04-20T18:51:58Z</time>
      </trkpt>
      <trkpt lat="46.75793" lon="-2.02474">
        <ele>5</ele>
        <time>2018-04-20T18:52:58Z</time>
      </trkpt>
      <trkpt lat="46.75797" lon="-2.02468">
        <ele>5</ele>
        <time>2018-04-20T18:53:58Z</time>
      </trkpt>
      <trkpt lat="46.75803" lon="-2.02471">
        <ele>6</ele>
        <time>2018-04-20T18:54:58Z</time>
      </trkpt>
      <trkpt lat="46.75804" lon="-2.02477">
        <ele>6</ele>
        <time>2018-04-20T18:55:58Z</time>
      </trkpt>
      <trkpt lat="46.75852" lon="-2.02482">
        <ele>6</ele>
        <time>2018-04-20T18:56:58Z</time>
      </trkpt>
      <trkpt lat="46.75862" lon="-2.02485">
        <ele>6</ele>
        <time>2018-04-20T18:57:58Z</time>
      </trkpt>
      <trkpt lat="46.75897" lon="-2.02497">
        <ele>6</ele>
        <time>2018-04-20T18:58:58Z</time>
      </trkpt>
      <trkpt lat="46.75942" lon="-2.02518">
        <ele>6</ele>
        <time>2018-04-20T18:59:58Z</time>
      </trkpt>
      <trkpt lat="46.75954" lon="-2.02527">
        <ele>6</ele>
        <time>2018-04-20T19:00:58Z</time>
      </trkpt>
      <trkpt lat="46.75974" lon="-2.02555">
        <ele>6</ele>
        <time>2018-04-20T19:01:58Z</time>
      </trkpt>
      <trkpt lat="46.75986" lon="-2.02565">
        <ele>6</ele>
        <time>2018-04-20T19:02:58Z</time>
      </trkpt>
      <trkpt lat="46.76052" lon="-2.02655">
        <ele>7</ele>
        <time>2018-04-20T19:03:58Z</time>
      </trkpt>
      <trkpt lat="46.7607" lon="-2.02674">
        <ele>7</ele>
        <time>2018-04-20T19:04:58Z</time>
      </trkpt>
      <trkpt lat="46.76216" lon="-2.02794">
        <ele>8</ele>
        <time>2018-04-20T19:05:58Z</time>
      </trkpt>
      <trkpt lat="46.7625" lon="-2.02835">
        <ele>7</ele>
        <time>2018-04-20T19:06:58Z</time>
      </trkpt>
      <trkpt lat="46.76267" lon="-2.02853">
        <ele>8</ele>
        <time>2018-04-20T19:07:58Z</time>
      </trkpt>
      <trkpt lat="46.76326" lon="-2.02895">
        <ele>9</ele>
        <time>2018-04-20T19:08:58Z</time>
      </trkpt>
      <trkpt lat="46.76346" lon="-2.02919">
        <ele>9</ele>
        <time>2018-04-20T19:09:58Z</time>
      </trkpt>
      <trkpt lat="46.76359" lon="-2.02948">
        <ele>9</ele>
        <time>2018-04-20T19:10:58Z</time>
      </trkpt>
      <trkpt lat="46.76364" lon="-2.02962">
        <ele>9</ele>
        <time>2018-04-20T19:11:58Z</time>
      </trkpt>
      <trkpt lat="46.76372" lon="-2.02996">
        <ele>9</ele>
        <time>2018-04-20T19:12:58Z</time>
      </trkpt>
      <trkpt lat="46.76375" lon="-2.03034">
        <ele>8</ele>
        <time>2018-04-20T19:13:58Z</time>
      </trkpt>
      <trkpt lat="46.76377" lon="-2.03095">
        <ele>8</ele>
        <time>2018-04-20T19:14:58Z</time>
      </trkpt>
      <trkpt lat="46.76379" lon="-2.03109">
        <ele>8</ele>
        <time>2018-04-20T19:15:58Z</time>
      </trkpt>
      <trkpt lat="46.76385" lon="-2.03135">
        <ele>8</ele>
        <time>2018-04-20T19:16:58Z</time>
      </trkpt>
      <trkpt lat="46.764" lon="-2.0317">
        <ele>8</ele>
        <time>2018-04-20T19:17:58Z</time>
      </trkpt>
      <trkpt lat="46.76465" lon="-2.03297">
        <ele>7</ele>
        <time>2018-04-20T19:18:58Z</time>
      </trkpt>
      <trkpt lat="46.76488" lon="-2.03347">
        <ele>7</ele>
        <time>2018-04-20T19:19:58Z</time>
      </trkpt>
      <trkpt lat="46.76491" lon="-2.03365">
        <ele>7</ele>
        <time>2018-04-20T19:20:58Z</time>
      </trkpt>
      <trkpt lat="46.76502" lon="-2.03404">
        <ele>8</ele>
        <time>2018-04-20T19:21:58Z</time>
      </trkpt>
      <trkpt lat="46.76529" lon="-2.03468">
        <ele>9</ele>
        <time>2018-04-20T19:22:58Z</time>
      </trkpt>
      <trkpt lat="46.76551" lon="-2.03498">
        <ele>9</ele>
        <time>2018-04-20T19:23:58Z</time>
      </trkpt>
      <trkpt lat="46.76681" lon="-2.03591">
        <ele>10</ele>
        <time>2018-04-20T19:24:58Z</time>
      </trkpt>
      <trkpt lat="46.76709" lon="-2.03562">
        <ele>9</ele>
        <time>2018-04-20T19:25:58Z</time>
      </trkpt>
      <trkpt lat="46.76721" lon="-2.03547">
        <ele>8</ele>
        <time>2018-04-20T19:26:58Z</time>
      </trkpt>
      <trkpt lat="46.76735" lon="-2.03524">
        <ele>7</ele>
        <time>2018-04-20T19:27:58Z</time>
      </trkpt>
      <trkpt lat="46.76735" lon="-2.03524">
        <ele>7</ele>
        <time>2018-04-20T19:28:58Z</time>
      </trkpt>
      <trkpt lat="46.76785" lon="-2.03445">
        <ele>6</ele>
        <time>2018-04-20T19:29:58Z</time>
      </trkpt>
      <trkpt lat="46.76807" lon="-2.03422">
        <ele>6</ele>
        <time>2018-04-20T19:30:58Z</time>
      </trkpt>
      <trkpt lat="46.76876" lon="-2.03368">
        <ele>4</ele>
        <time>2018-04-20T19:31:58Z</time>
      </trkpt>
      <trkpt lat="46.7697" lon="-2.03204">
        <ele>4</ele>
        <time>2018-04-20T19:32:58Z</time>
      </trkpt>
      <trkpt lat="46.76984" lon="-2.03186">
        <ele>4</ele>
        <time>2018-04-20T19:33:58Z</time>
      </trkpt>
      <trkpt lat="46.77004" lon="-2.03172">
        <ele>5</ele>
        <time>2018-04-20T19:34:58Z</time>
      </trkpt>
      <trkpt lat="46.77014" lon="-2.03172">
        <ele>5</ele>
        <time>2018-04-20T19:35:58Z</time>
      </trkpt>
      <trkpt lat="46.77039" lon="-2.03192">
        <ele>4</ele>
        <time>2018-04-20T19:36:58Z</time>
      </trkpt>
      <trkpt lat="46.7712" lon="-2.03355">
        <ele>2</ele>
        <time>2018-04-20T19:37:58Z</time>
      </trkpt>
      <trkpt lat="46.77156" lon="-2.03422">
        <ele>3</ele>
        <time>2018-04-20T19:38:58Z</time>
      </trkpt>
      <trkpt lat="46.77251" lon="-2.03585">
        <ele>6</ele>
        <time>2018-04-20T19:39:58Z</time>
      </trkpt>
      <trkpt lat="46.77295" lon="-2.03641">
        <ele>6</ele>
        <time>2018-04-20T19:40:58Z</time>
      </trkpt>
      <trkpt lat="46.77331" lon="-2.0368">
        <ele>5</ele>
        <time>2018-04-20T19:41:58Z</time>
      </trkpt>
      <trkpt lat="46.77356" lon="-2.03696">
        <ele>5</ele>
        <time>2018-04-20T19:42:58Z</time>
      </trkpt>
      <trkpt lat="46.77375" lon="-2.03704">
        <ele>5</ele>
        <time>2018-04-20T19:43:58Z</time>
      </trkpt>
      <trkpt lat="46.77593" lon="-2.03784">
        <ele>4</ele>
        <time>2018-04-20T19:44:58Z</time>
      </trkpt>
      <trkpt lat="46.77653" lon="-2.03804">
        <ele>3</ele>
        <time>2018-04-20T19:45:58Z</time>
      </trkpt>
      <trkpt lat="46.77813" lon="-2.03886">
        <ele>3</ele>
        <time>2018-04-20T19:46:58Z</time>
      </trkpt>
      <trkpt lat="46.77894" lon="-2.03935">
        <ele>2</ele>
        <time>2018-04-20T19:47:58Z</time>
      </trkpt>
      <trkpt lat="46.77914" lon="-2.03938">
        <ele>2</ele>
        <time>2018-04-20T19:48:58Z</time>
      </trkpt>
      <trkpt lat="46.77939" lon="-2.03934">
        <ele>2</ele>
        <time>2018-04-20T19:49:58Z</time>
      </trkpt>
      <trkpt lat="46.77954" lon="-2.03926">
        <ele>2</ele>
        <time>2018-04-20T19:50:58Z</time>
      </trkpt>
      <trkpt lat="46.77976" lon="-2.03919">
        <ele>3</ele>
        <time>2018-04-20T19:51:58Z</time>
      </trkpt>
      <trkpt lat="46.7799" lon="-2.03922">
        <ele>3</ele>
        <time>2018-04-20T19:52:58Z</time>
      </trkpt>
      <trkpt lat="46.77992" lon="-2.03917">
        <ele>3</ele>
        <time>2018-04-20T19:53:58Z</time>
      </trkpt>
      <trkpt lat="46.77995" lon="-2.03915">
        <ele>3</ele>
        <time>2018-04-20T19:54:58Z</time>
      </trkpt>
      <trkpt lat="46.77999" lon="-2.03916">
        <ele>3</ele>
        <time>2018-04-20T19:55:58Z</time>
      </trkpt>
      <trkpt lat="46.78002" lon="-2.03919">
        <ele>3</ele>
        <time>2018-04-20T19:56:58Z</time>
      </trkpt>
      <trkpt lat="46.78015" lon="-2.03909">
        <ele>3</ele>
        <time>2018-04-20T19:57:58Z</time>
      </trkpt>
      <trkpt lat="46.78098" lon="-2.0386">
        <ele>5</ele>
        <time>2018-04-20T19:58:58Z</time>
      </trkpt>
      <trkpt lat="46.78106" lon="-2.03851">
        <ele>5</ele>
        <time>2018-04-20T19:59:58Z</time>
      </trkpt>
      <trkpt lat="46.78104" lon="-2.03848">
        <ele>5</ele>
        <time>2018-04-20T20:00:58Z</time>
      </trkpt>
      <trkpt lat="46.78106" lon="-2.03839">
        <ele>6</ele>
        <time>2018-04-20T20:01:58Z</time>
      </trkpt>
      <trkpt lat="46.78108" lon="-2.03836">
        <ele>6</ele>
        <time>2018-04-20T20:02:58Z</time>
      </trkpt>
      <trkpt lat="46.78111" lon="-2.03836">
        <ele>6</ele>
        <time>2018-04-20T20:03:58Z</time>
      </trkpt>
      <trkpt lat="46.78116" lon="-2.03842">
        <ele>6</ele>
        <time>2018-04-20T20:04:58Z</time>
      </trkpt>
      <trkpt lat="46.78116" lon="-2.03846">
        <ele>6</ele>
        <time>2018-04-20T20:05:58Z</time>
      </trkpt>
      <trkpt lat="46.78121" lon="-2.03845">
        <ele>6</ele>
        <time>2018-04-20T20:06:58Z</time>
      </trkpt>
      <trkpt lat="46.78218" lon="-2.03789">
        <ele>9</ele>
        <time>2018-04-20T20:07:58Z</time>
      </trkpt>
      <trkpt lat="46.78225" lon="-2.03788">
        <ele>9</ele>
        <time>2018-04-20T20:08:58Z</time>
      </trkpt>
      <trkpt lat="46.7823" lon="-2.03783">
        <ele>10</ele>
        <time>2018-04-20T20:09:58Z</time>
      </trkpt>
      <trkpt lat="46.78234" lon="-2.03785">
        <ele>10</ele>
        <time>2018-04-20T20:10:58Z</time>
      </trkpt>
      <trkpt lat="46.78254" lon="-2.03757">
        <ele>10</ele>
        <time>2018-04-20T20:11:58Z</time>
      </trkpt>
      <trkpt lat="46.78325" lon="-2.03684">
        <ele>10</ele>
        <time>2018-04-20T20:12:58Z</time>
      </trkpt>
      <trkpt lat="46.78403" lon="-2.03631">
        <ele>7</ele>
        <time>2018-04-20T20:13:58Z</time>
      </trkpt>
      <trkpt lat="46.78453" lon="-2.03753">
        <ele>7</ele>
        <time>2018-04-20T20:14:58Z</time>
      </trkpt>
      <trkpt lat="46.78453" lon="-2.03753">
        <ele>7</ele>
        <time>2018-04-20T20:15:58Z</time>
      </trkpt>
      <trkpt lat="46.78465" lon="-2.0378">
        <ele>6</ele>
        <time>2018-04-20T20:16:58Z</time>
      </trkpt>
      <trkpt lat="46.78496" lon="-2.03875">
        <ele>6</ele>
        <time>2018-04-20T20:17:58Z</time>
      </trkpt>
      <trkpt lat="46.78539" lon="-2.03991">
        <ele>7</ele>
        <time>2018-04-20T20:18:58Z</time>
      </trkpt>
      <trkpt lat="46.78576" lon="-2.04132">
        <ele>5</ele>
        <time>2018-04-20T20:19:58Z</time>
      </trkpt>
      <trkpt lat="46.78632" lon="-2.04266">
        <ele>5</ele>
        <time>2018-04-20T20:20:58Z</time>
      </trkpt>
      <trkpt lat="46.78682" lon="-2.04414">
        <ele>7</ele>
        <time>2018-04-20T20:21:58Z</time>
      </trkpt>
      <trkpt lat="46.78788" lon="-2.04669">
        <ele>7</ele>
        <time>2018-04-20T20:22:58Z</time>
      </trkpt>
      <trkpt lat="46.78867" lon="-2.04923">
        <ele>5</ele>
        <time>2018-04-20T20:23:58Z</time>
      </trkpt>
      <trkpt lat="46.78926" lon="-2.05064">
        <ele>3</ele>
        <time>2018-04-20T20:24:58Z</time>
      </trkpt>
      <trkpt lat="46.7897" lon="-2.05176">
        <ele>4</ele>
        <time>2018-04-20T20:25:58Z</time>
      </trkpt>
      <trkpt lat="46.79059" lon="-2.05453">
        <ele>3</ele>
        <time>2018-04-20T20:26:58Z</time>
      </trkpt>
      <trkpt lat="46.79085" lon="-2.05502">
        <ele>3</ele>
        <time>2018-04-20T20:27:58Z</time>
      </trkpt>
      <trkpt lat="46.79094" lon="-2.05526">
        <ele>3</ele>
        <time>2018-04-20T20:28:58Z</time>
      </trkpt>
      <trkpt lat="46.79099" lon="-2.05533">
        <ele>3</ele>
        <time>2018-04-20T20:29:58Z</time>
      </trkpt>
      <trkpt lat="46.79101" lon="-2.05528">
        <ele>3</ele>
        <time>2018-04-20T20:30:58Z</time>
      </trkpt>
      <trkpt lat="46.79107" lon="-2.05525">
        <ele>3</ele>
        <time>2018-04-20T20:31:58Z</time>
      </trkpt>
      <trkpt lat="46.79112" lon="-2.05528">
        <ele>3</ele>
        <time>2018-04-20T20:32:58Z</time>
      </trkpt>
      <trkpt lat="46.79114" lon="-2.05531">
        <ele>3</ele>
        <time>2018-04-20T20:33:58Z</time>
      </trkpt>
      <trkpt lat="46.79115" lon="-2.05537">
        <ele>3</ele>
        <time>2018-04-20T20:34:58Z</time>
      </trkpt>
      <trkpt lat="46.79112" lon="-2.05546">
        <ele>3</ele>
        <time>2018-04-20T20:35:58Z</time>
      </trkpt>
      <trkpt lat="46.79109" lon="-2.05548">
        <ele>3</ele>
        <time>2018-04-20T20:36:58Z</time>
      </trkpt>
      <trkpt lat="46.79106" lon="-2.05565">
        <ele>3</ele>
        <time>2018-04-20T20:37:58Z</time>
      </trkpt>
      <trkpt lat="46.79108" lon="-2.05583">
        <ele>3</ele>
        <time>2018-04-20T20:38:58Z</time>
      </trkpt>
      <trkpt lat="46.79113" lon="-2.05591">
        <ele>3</ele>
        <time>2018-04-20T20:39:58Z</time>
      </trkpt>
      <trkpt lat="46.79114" lon="-2.05597">
        <ele>3</ele>
        <time>2018-04-20T20:40:58Z</time>
      </trkpt>
      <trkpt lat="46.79113" lon="-2.05604">
        <ele>3</ele>
        <time>2018-04-20T20:41:58Z</time>
      </trkpt>
      <trkpt lat="46.79106" lon="-2.05613">
        <ele>3</ele>
        <time>2018-04-20T20:42:58Z</time>
      </trkpt>
      <trkpt lat="46.79102" lon="-2.05614">
        <ele>3</ele>
        <time>2018-04-20T20:43:58Z</time>
      </trkpt>
      <trkpt lat="46.79096" lon="-2.05612">
        <ele>3</ele>
        <time>2018-04-20T20:44:58Z</time>
      </trkpt>
      <trkpt lat="46.79089" lon="-2.05621">
        <ele>3</ele>
        <time>2018-04-20T20:45:58Z</time>
      </trkpt>
      <trkpt lat="46.79072" lon="-2.05668">
        <ele>4</ele>
        <time>2018-04-20T20:46:58Z</time>
      </trkpt>
      <trkpt lat="46.7906" lon="-2.05715">
        <ele>7</ele>
        <time>2018-04-20T20:47:58Z</time>
      </trkpt>
      <trkpt lat="46.7906" lon="-2.05715">
        <ele>7</ele>
        <time>2018-04-20T20:48:58Z</time>
      </trkpt>
      <trkpt lat="46.7904" lon="-2.05795">
        <ele>10</ele>
        <time>2018-04-20T20:49:58Z</time>
      </trkpt>
      <trkpt lat="46.79037" lon="-2.05847">
        <ele>9</ele>
        <time>2018-04-20T20:50:58Z</time>
      </trkpt>
      <trkpt lat="46.79039" lon="-2.06091">
        <ele>9</ele>
        <time>2018-04-20T20:51:58Z</time>
      </trkpt>
      <trkpt lat="46.79035" lon="-2.06154">
        <ele>10</ele>
        <time>2018-04-20T20:52:58Z</time>
      </trkpt>
      <trkpt lat="46.79036" lon="-2.06193">
        <ele>11</ele>
        <time>2018-04-20T20:53:58Z</time>
      </trkpt>
      <trkpt lat="46.7904" lon="-2.06217">
        <ele>11</ele>
        <time>2018-04-20T20:54:58Z</time>
      </trkpt>
      <trkpt lat="46.7905" lon="-2.06227">
        <ele>10</ele>
        <time>2018-04-20T20:55:58Z</time>
      </trkpt>
      <trkpt lat="46.79053" lon="-2.06236">
        <ele>10</ele>
        <time>2018-04-20T20:56:58Z</time>
      </trkpt>
      <trkpt lat="46.79053" lon="-2.06253">
        <ele>10</ele>
        <time>2018-04-20T20:57:58Z</time>
      </trkpt>
      <trkpt lat="46.79051" lon="-2.06259">
        <ele>11</ele>
        <time>2018-04-20T20:58:58Z</time>
      </trkpt>
      <trkpt lat="46.79044" lon="-2.0627">
        <ele>11</ele>
        <time>2018-04-20T20:59:58Z</time>
      </trkpt>
      <trkpt lat="46.79042" lon="-2.06286">
        <ele>11</ele>
        <time>2018-04-20T21:00:58Z</time>
      </trkpt>
      <trkpt lat="46.79042" lon="-2.06306">
        <ele>12</ele>
        <time>2018-04-20T21:01:58Z</time>
      </trkpt>
      <trkpt lat="46.79044" lon="-2.06318">
        <ele>12</ele>
        <time>2018-04-20T21:02:58Z</time>
      </trkpt>
      <trkpt lat="46.79057" lon="-2.06362">
        <ele>13</ele>
        <time>2018-04-20T21:03:58Z</time>
      </trkpt>
      <trkpt lat="46.7908" lon="-2.06432">
        <ele>13</ele>
        <time>2018-04-20T21:04:58Z</time>
      </trkpt>
      <trkpt lat="46.79089" lon="-2.06449">
        <ele>13</ele>
        <time>2018-04-20T21:05:58Z</time>
      </trkpt>
      <trkpt lat="46.79099" lon="-2.0646">
        <ele>13</ele>
        <time>2018-04-20T21:06:58Z</time>
      </trkpt>
      <trkpt lat="46.79102" lon="-2.06467">
        <ele>13</ele>
        <time>2018-04-20T21:07:58Z</time>
      </trkpt>
      <trkpt lat="46.79101" lon="-2.0648">
        <ele>13</ele>
        <time>2018-04-20T21:08:58Z</time>
      </trkpt>
      <trkpt lat="46.79106" lon="-2.06504">
        <ele>13</ele>
        <time>2018-04-20T21:09:58Z</time>
      </trkpt>
      <trkpt lat="46.79147" lon="-2.06614">
        <ele>12</ele>
        <time>2018-04-20T21:10:58Z</time>
      </trkpt>
      <trkpt lat="46.79159" lon="-2.06656">
        <ele>12</ele>
        <time>2018-04-20T21:11:58Z</time>
      </trkpt>
      <trkpt lat="46.79162" lon="-2.06658">
        <ele>11</ele>
        <time>2018-04-20T21:12:58Z</time>
      </trkpt>
      <trkpt lat="46.79167" lon="-2.06668">
        <ele>11</ele>
        <time>2018-04-20T21:13:58Z</time>
      </trkpt>
      <trkpt lat="46.79167" lon="-2.06675">
        <ele>11</ele>
        <time>2018-04-20T21:14:58Z</time>
      </trkpt>
      <trkpt lat="46.79173" lon="-2.06684">
        <ele>11</ele>
        <time>2018-04-20T21:15:58Z</time>
      </trkpt>
      <trkpt lat="46.79191" lon="-2.06703">
        <ele>11</ele>
        <time>2018-04-20T21:16:58Z</time>
      </trkpt>
      <trkpt lat="46.79219" lon="-2.06725">
        <ele>10</ele>
        <time>2018-04-20T21:17:58Z</time>
      </trkpt>
      <trkpt lat="46.79234" lon="-2.0673">
        <ele>9</ele>
        <time>2018-04-20T21:18:58Z</time>
      </trkpt>
      <trkpt lat="46.79315" lon="-2.0674">
        <ele>6</ele>
        <time>2018-04-20T21:19:58Z</time>
      </trkpt>
      <trkpt lat="46.79462" lon="-2.06763">
        <ele>5</ele>
        <time>2018-04-20T21:20:58Z</time>
      </trkpt>
      <trkpt lat="46.79478" lon="-2.06759">
        <ele>5</ele>
        <time>2018-04-20T21:21:58Z</time>
      </trkpt>
      <trkpt lat="46.79483" lon="-2.06756">
        <ele>5</ele>
        <time>2018-04-20T21:22:58Z</time>
      </trkpt>
      <trkpt lat="46.79487" lon="-2.0675">
        <ele>5</ele>
        <time>2018-04-20T21:23:58Z</time>
      </trkpt>
      <trkpt lat="46.79493" lon="-2.0675">
        <ele>5</ele>
        <time>2018-04-20T21:24:58Z</time>
      </trkpt>
      <trkpt lat="46.79621" lon="-2.06937">
        <ele>5</ele>
        <time>2018-04-20T21:25:58Z</time>
      </trkpt>
      <trkpt lat="46.79637" lon="-2.0695">
        <ele>4</ele>
        <time>2018-04-20T21:26:58Z</time>
      </trkpt>
      <trkpt lat="46.79652" lon="-2.06954">
        <ele>4</ele>
        <time>2018-04-20T21:27:58Z</time>
      </trkpt>
      <trkpt lat="46.79656" lon="-2.06951">
        <ele>4</ele>
        <time>2018-04-20T21:28:58Z</time>
      </trkpt>
      <trkpt lat="46.79664" lon="-2.0695">
        <ele>4</ele>
        <time>2018-04-20T21:29:58Z</time>
      </trkpt>
      <trkpt lat="46.79667" lon="-2.06953">
        <ele>4</ele>
        <time>2018-04-20T21:30:58Z</time>
      </trkpt>
      <trkpt lat="46.79673" lon="-2.06946">
        <ele>4</ele>
        <time>2018-04-20T21:31:58Z</time>
      </trkpt>
      <trkpt lat="46.79681" lon="-2.06943">
        <ele>4</ele>
        <time>2018-04-20T21:32:58Z</time>
      </trkpt>
      <trkpt lat="46.797" lon="-2.06942">
        <ele>3</ele>
        <time>2018-04-20T21:33:58Z</time>
      </trkpt>
      <trkpt lat="46.79782" lon="-2.06896">
        <ele>2</ele>
        <time>2018-04-20T21:34:58Z</time>
      </trkpt>
      <trkpt lat="46.79782" lon="-2.06896">
        <ele>2</ele>
        <time>2018-04-20T21:35:58Z</time>
      </trkpt>
      <trkpt lat="46.79856" lon="-2.0685">
        <ele>2</ele>
        <time>2018-04-20T21:36:58Z</time>
      </trkpt>
      <trkpt lat="46.79938" lon="-2.06802">
        <ele>2</ele>
        <time>2018-04-20T21:37:58Z</time>
      </trkpt>
      <trkpt lat="46.79981" lon="-2.0678">
        <ele>2.3</ele>
        <time>2018-04-20T21:38:58Z</time>
      </trkpt>
      <trkpt lat="46.79989" lon="-2.06774">
        <ele>1</ele>
        <time>2018-04-20T21:39:58Z</time>
      </trkpt>
      <trkpt lat="46.79991" lon="-2.06765">
        <ele>1</ele>
        <time>2018-04-20T21:40:58Z</time>
      </trkpt>
      <trkpt lat="46.79994" lon="-2.06761">
        <ele>1</ele>
        <time>2018-04-20T21:41:58Z</time>
      </trkpt>
      <trkpt lat="46.79998" lon="-2.06759">
        <ele>1</ele>
        <time>2018-04-20T21:42:58Z</time>
      </trkpt>
      <trkpt lat="46.80004" lon="-2.06762">
        <ele>1</ele>
        <time>2018-04-20T21:43:58Z</time>
      </trkpt>
      <trkpt lat="46.80007" lon="-2.06765">
        <ele>1</ele>
        <time>2018-04-20T21:44:58Z</time>
      </trkpt>
      <trkpt lat="46.80017" lon="-2.06763">
        <ele>1</ele>
        <time>2018-04-20T21:45:58Z</time>
      </trkpt>
      <trkpt lat="46.80069" lon="-2.06744">
        <ele>1</ele>
        <time>2018-04-20T21:46:58Z</time>
      </trkpt>
      <trkpt lat="46.80086" lon="-2.0674">
        <ele>1</ele>
        <time>2018-04-20T21:47:58Z</time>
      </trkpt>
      <trkpt lat="46.80099" lon="-2.06732">
        <ele>1</ele>
        <time>2018-04-20T21:48:58Z</time>
      </trkpt>
      <trkpt lat="46.80119" lon="-2.06708">
        <ele>1</ele>
        <time>2018-04-20T21:49:58Z</time>
      </trkpt>
      <trkpt lat="46.80126" lon="-2.06697">
        <ele>1</ele>
        <time>2018-04-20T21:50:58Z</time>
      </trkpt>
      <trkpt lat="46.80136" lon="-2.06669">
        <ele>1</ele>
        <time>2018-04-20T21:51:58Z</time>
      </trkpt>
      <trkpt lat="46.80147" lon="-2.06681">
        <ele>1</ele>
        <time>2018-04-20T21:52:58Z</time>
      </trkpt>
      <trkpt lat="46.80163" lon="-2.06707">
        <ele>1</ele>
        <time>2018-04-20T21:53:58Z</time>
      </trkpt>
      <trkpt lat="46.80172" lon="-2.06711">
        <ele>1</ele>
        <time>2018-04-20T21:54:58Z</time>
      </trkpt>
      <trkpt lat="46.8018" lon="-2.0671">
        <ele>1</ele>
        <time>2018-04-20T21:55:58Z</time>
      </trkpt>
      <trkpt lat="46.80213" lon="-2.06691">
        <ele>1</ele>
        <time>2018-04-20T21:56:58Z</time>
      </trkpt>
      <trkpt lat="46.80236" lon="-2.06681">
        <ele>1</ele>
        <time>2018-04-20T21:57:58Z</time>
      </trkpt>
      <trkpt lat="46.80314" lon="-2.06674">
        <ele>2</ele>
        <time>2018-04-20T21:58:58Z</time>
      </trkpt>
      <trkpt lat="46.80339" lon="-2.06666">
        <ele>2</ele>
        <time>2018-04-20T21:59:58Z</time>
      </trkpt>
      <trkpt lat="46.80364" lon="-2.06654">
        <ele>2</ele>
        <time>2018-04-20T22:00:58Z</time>
      </trkpt>
      <trkpt lat="46.80397" lon="-2.06633">
        <ele>1</ele>
        <time>2018-04-20T22:01:58Z</time>
      </trkpt>
      <trkpt lat="46.80493" lon="-2.06564">
        <ele>1</ele>
        <time>2018-04-20T22:02:58Z</time>
      </trkpt>
      <trkpt lat="46.80583" lon="-2.06508">
        <ele>2</ele>
        <time>2018-04-20T22:03:58Z</time>
      </trkpt>
      <trkpt lat="46.80621" lon="-2.06481">
        <ele>2</ele>
        <time>2018-04-20T22:04:58Z</time>
      </trkpt>
      <trkpt lat="46.80621" lon="-2.06481">
        <ele>2</ele>
        <time>2018-04-20T22:05:58Z</time>
      </trkpt>
      <trkpt lat="46.80653" lon="-2.06456">
        <ele>2</ele>
        <time>2018-04-20T22:06:58Z</time>
      </trkpt>
      <trkpt lat="46.80801" lon="-2.06362">
        <ele>1</ele>
        <time>2018-04-20T22:07:58Z</time>
      </trkpt>
      <trkpt lat="46.80826" lon="-2.06348">
        <ele>1</ele>
        <time>2018-04-20T22:08:58Z</time>
      </trkpt>
      <trkpt lat="46.8085" lon="-2.06337">
        <ele>1</ele>
        <time>2018-04-20T22:09:58Z</time>
      </trkpt>
      <trkpt lat="46.80882" lon="-2.06332">
        <ele>1</ele>
        <time>2018-04-20T22:10:58Z</time>
      </trkpt>
      <trkpt lat="46.81065" lon="-2.06315">
        <ele>1</ele>
        <time>2018-04-20T22:11:58Z</time>
      </trkpt>
      <trkpt lat="46.81218" lon="-2.06311">
        <ele>2</ele>
        <time>2018-04-20T22:12:58Z</time>
      </trkpt>
      <trkpt lat="46.81249" lon="-2.06318">
        <ele>2</ele>
        <time>2018-04-20T22:13:58Z</time>
      </trkpt>
      <trkpt lat="46.81409" lon="-2.06365">
        <ele>1</ele>
        <time>2018-04-20T22:14:58Z</time>
      </trkpt>
      <trkpt lat="46.81576" lon="-2.0641">
        <ele>2</ele>
        <time>2018-04-20T22:15:58Z</time>
      </trkpt>
      <trkpt lat="46.81616" lon="-2.06414">
        <ele>1.8</ele>
        <time>2018-04-20T22:16:58Z</time>
      </trkpt>
      <trkpt lat="46.81644" lon="-2.0641">
        <ele>1.4</ele>
        <time>2018-04-20T22:17:58Z</time>
      </trkpt>
      <trkpt lat="46.81812" lon="-2.06365">
        <ele>1</ele>
        <time>2018-04-20T22:18:58Z</time>
      </trkpt>
      <trkpt lat="46.81949" lon="-2.06335">
        <ele>1</ele>
        <time>2018-04-20T22:19:58Z</time>
      </trkpt>
      <trkpt lat="46.82014" lon="-2.06323">
        <ele>1</ele>
        <time>2018-04-20T22:20:58Z</time>
      </trkpt>
      <trkpt lat="46.8215" lon="-2.06305">
        <ele>2</ele>
        <time>2018-04-20T22:21:58Z</time>
      </trkpt>
      <trkpt lat="46.82201" lon="-2.06286">
        <ele>2</ele>
        <time>2018-04-20T22:22:58Z</time>
      </trkpt>
      <trkpt lat="46.82424" lon="-2.06158">
        <ele>1.6</ele>
        <time>2018-04-20T22:23:58Z</time>
      </trkpt>
      <trkpt lat="46.82447" lon="-2.06147">
        <ele>1.7</ele>
        <time>2018-04-20T22:24:58Z</time>
      </trkpt>
      <trkpt lat="46.82469" lon="-2.06142">
        <ele>2</ele>
        <time>2018-04-20T22:25:58Z</time>
      </trkpt>
      <trkpt lat="46.82503" lon="-2.0614">
        <ele>2.9</ele>
        <time>2018-04-20T22:26:58Z</time>
      </trkpt>
      <trkpt lat="46.8278" lon="-2.06159">
        <ele>1</ele>
        <time>2018-04-20T22:27:58Z</time>
      </trkpt>
      <trkpt lat="46.82803" lon="-2.06157">
        <ele>1.4</ele>
        <time>2018-04-20T22:28:58Z</time>
      </trkpt>
      <trkpt lat="46.83051" lon="-2.06112">
        <ele>2</ele>
        <time>2018-04-20T22:29:58Z</time>
      </trkpt>
      <trkpt lat="46.83098" lon="-2.06107">
        <ele>2.4</ele>
        <time>2018-04-20T22:30:58Z</time>
      </trkpt>
      <trkpt lat="46.83121" lon="-2.06118">
        <ele>2.8</ele>
        <time>2018-04-20T22:31:58Z</time>
      </trkpt>
      <trkpt lat="46.83135" lon="-2.06116">
        <ele>3</ele>
        <time>2018-04-20T22:32:58Z</time>
      </trkpt>
      <trkpt lat="46.83138" lon="-2.06111">
        <ele>3</ele>
        <time>2018-04-20T22:33:58Z</time>
      </trkpt>
      <trkpt lat="46.83146" lon="-2.06109">
        <ele>2.9</ele>
        <time>2018-04-20T22:34:58Z</time>
      </trkpt>
      <trkpt lat="46.83154" lon="-2.06114">
        <ele>2.9</ele>
        <time>2018-04-20T22:35:58Z</time>
      </trkpt>
      <trkpt lat="46.83157" lon="-2.0612">
        <ele>2.8</ele>
        <time>2018-04-20T22:36:58Z</time>
      </trkpt>
      <trkpt lat="46.83175" lon="-2.06123">
        <ele>2.5</ele>
        <time>2018-04-20T22:37:58Z</time>
      </trkpt>
      <trkpt lat="46.83189" lon="-2.06129">
        <ele>2.6</ele>
        <time>2018-04-20T22:38:58Z</time>
      </trkpt>
      <trkpt lat="46.83472" lon="-2.06258">
        <ele>2</ele>
        <time>2018-04-20T22:39:58Z</time>
      </trkpt>
      <trkpt lat="46.83506" lon="-2.0627">
        <ele>1</ele>
        <time>2018-04-20T22:40:58Z</time>
      </trkpt>
      <trkpt lat="46.83536" lon="-2.06275">
        <ele>1.9</ele>
        <time>2018-04-20T22:41:58Z</time>
      </trkpt>
      <trkpt lat="46.83621" lon="-2.06274">
        <ele>2</ele>
        <time>2018-04-20T22:42:58Z</time>
      </trkpt>
      <trkpt lat="46.83683" lon="-2.06269">
        <ele>1</ele>
        <time>2018-04-20T22:43:58Z</time>
      </trkpt>
      <trkpt lat="46.8371" lon="-2.06262">
        <ele>1</ele>
        <time>2018-04-20T22:44:58Z</time>
      </trkpt>
      <trkpt lat="46.83753" lon="-2.06242">
        <ele>1</ele>
        <time>2018-04-20T22:45:58Z</time>
      </trkpt>
      <trkpt lat="46.84128" lon="-2.06042">
        <ele>2</ele>
        <time>2018-04-20T22:46:58Z</time>
      </trkpt>
      <trkpt lat="46.84146" lon="-2.06034">
        <ele>2</ele>
        <time>2018-04-20T22:47:58Z</time>
      </trkpt>
      <trkpt lat="46.84173" lon="-2.06026">
        <ele>2</ele>
        <time>2018-04-20T22:48:58Z</time>
      </trkpt>
      <trkpt lat="46.84216" lon="-2.06026">
        <ele>2</ele>
        <time>2018-04-20T22:49:58Z</time>
      </trkpt>
      <trkpt lat="46.84253" lon="-2.06029">
        <ele>2.9</ele>
        <time>2018-04-20T22:50:58Z</time>
      </trkpt>
      <trkpt lat="46.84795" lon="-2.06088">
        <ele>1.9</ele>
        <time>2018-04-20T22:51:58Z</time>
      </trkpt>
      <trkpt lat="46.8486" lon="-2.061">
        <ele>2.2</ele>
        <time>2018-04-20T22:52:58Z</time>
      </trkpt>
      <trkpt lat="46.85052" lon="-2.06147">
        <ele>1.7</ele>
        <time>2018-04-20T22:53:58Z</time>
      </trkpt>
      <trkpt lat="46.85078" lon="-2.06151">
        <ele>1.9</ele>
        <time>2018-04-20T22:54:58Z</time>
      </trkpt>
      <trkpt lat="46.85103" lon="-2.0615">
        <ele>1</ele>
        <time>2018-04-20T22:55:58Z</time>
      </trkpt>
      <trkpt lat="46.85134" lon="-2.0614">
        <ele>1</ele>
        <time>2018-04-20T22:56:58Z</time>
      </trkpt>
      <trkpt lat="46.85153" lon="-2.06129">
        <ele>1</ele>
        <time>2018-04-20T22:57:58Z</time>
      </trkpt>
      <trkpt lat="46.85165" lon="-2.06121">
        <ele>1</ele>
        <time>2018-04-20T22:58:58Z</time>
      </trkpt>
      <trkpt lat="46.85194" lon="-2.06092">
        <ele>2</ele>
        <time>2018-04-20T22:59:58Z</time>
      </trkpt>
      <trkpt lat="46.85245" lon="-2.06023">
        <ele>2</ele>
        <time>2018-04-20T23:00:58Z</time>
      </trkpt>
      <trkpt lat="46.85266" lon="-2.05999">
        <ele>2</ele>
        <time>2018-04-20T23:01:58Z</time>
      </trkpt>
      <trkpt lat="46.85292" lon="-2.05977">
        <ele>2</ele>
        <time>2018-04-20T23:02:58Z</time>
      </trkpt>
      <trkpt lat="46.85312" lon="-2.05965">
        <ele>1.9</ele>
        <time>2018-04-20T23:03:58Z</time>
      </trkpt>
      <trkpt lat="46.85339" lon="-2.05954">
        <ele>1.4</ele>
        <time>2018-04-20T23:04:58Z</time>
      </trkpt>
      <trkpt lat="46.85368" lon="-2.05946">
        <ele>1.9</ele>
        <time>2018-04-20T23:05:58Z</time>
      </trkpt>
      <trkpt lat="46.85404" lon="-2.05939">
        <ele>2</ele>
        <time>2018-04-20T23:06:58Z</time>
      </trkpt>
      <trkpt lat="46.85437" lon="-2.05941">
        <ele>1.9</ele>
        <time>2018-04-20T23:07:58Z</time>
      </trkpt>
      <trkpt lat="46.85481" lon="-2.05954">
        <ele>2</ele>
        <time>2018-04-20T23:08:58Z</time>
      </trkpt>
      <trkpt lat="46.85503" lon="-2.05966">
        <ele>2</ele>
        <time>2018-04-20T23:09:58Z</time>
      </trkpt>
      <trkpt lat="46.85596" lon="-2.06029">
        <ele>1</ele>
        <time>2018-04-20T23:10:58Z</time>
      </trkpt>
      <trkpt lat="46.85625" lon="-2.06046">
        <ele>1</ele>
        <time>2018-04-20T23:11:58Z</time>
      </trkpt>
      <trkpt lat="46.85648" lon="-2.06055">
        <ele>1</ele>
        <time>2018-04-20T23:12:58Z</time>
      </trkpt>
      <trkpt lat="46.85679" lon="-2.06062">
        <ele>2</ele>
        <time>2018-04-20T23:13:58Z</time>
      </trkpt>
      <trkpt lat="46.86046" lon="-2.06112">
        <ele>1</ele>
        <time>2018-04-20T23:14:58Z</time>
      </trkpt>
      <trkpt lat="46.86064" lon="-2.06112">
        <ele>1</ele>
        <time>2018-04-20T23:15:58Z</time>
      </trkpt>
      <trkpt lat="46.86098" lon="-2.06105">
        <ele>1</ele>
        <time>2018-04-20T23:16:58Z</time>
      </trkpt>
      <trkpt lat="46.86268" lon="-2.06008">
        <ele>2</ele>
        <time>2018-04-20T23:17:58Z</time>
      </trkpt>
      <trkpt lat="46.86296" lon="-2.05995">
        <ele>1</ele>
        <time>2018-04-20T23:18:58Z</time>
      </trkpt>
      <trkpt lat="46.8632" lon="-2.05988">
        <ele>1</ele>
        <time>2018-04-20T23:19:58Z</time>
      </trkpt>
      <trkpt lat="46.86342" lon="-2.05985">
        <ele>1</ele>
        <time>2018-04-20T23:20:58Z</time>
      </trkpt>
      <trkpt lat="46.86365" lon="-2.05987">
        <ele>1</ele>
        <time>2018-04-20T23:21:58Z</time>
      </trkpt>
      <trkpt lat="46.86502" lon="-2.06007">
        <ele>2</ele>
        <time>2018-04-20T23:22:58Z</time>
      </trkpt>
      <trkpt lat="46.8653" lon="-2.05967">
        <ele>2</ele>
        <time>2018-04-20T23:23:58Z</time>
      </trkpt>
      <trkpt lat="46.86546" lon="-2.0595">
        <ele>2</ele>
        <time>2018-04-20T23:24:58Z</time>
      </trkpt>
      <trkpt lat="46.8662" lon="-2.05863">
        <ele>1</ele>
        <time>2018-04-20T23:25:58Z</time>
      </trkpt>
      <trkpt lat="46.86659" lon="-2.05778">
        <ele>1</ele>
        <time>2018-04-20T23:26:58Z</time>
      </trkpt>
      <trkpt lat="46.86659" lon="-2.05778">
        <ele>1</ele>
        <time>2018-04-20T23:27:58Z</time>
      </trkpt>
      <trkpt lat="46.86687" lon="-2.05705">
        <ele>2</ele>
        <time>2018-04-20T23:28:58Z</time>
      </trkpt>
      <trkpt lat="46.86705" lon="-2.05665">
        <ele>2</ele>
        <time>2018-04-20T23:29:58Z</time>
      </trkpt>
      <trkpt lat="46.86706" lon="-2.05514">
        <ele>2</ele>
        <time>2018-04-20T23:30:58Z</time>
      </trkpt>
      <trkpt lat="46.86715" lon="-2.05423">
        <ele>1</ele>
        <time>2018-04-20T23:31:58Z</time>
      </trkpt>
      <trkpt lat="46.86777" lon="-2.05374">
        <ele>1</ele>
        <time>2018-04-20T23:32:58Z</time>
      </trkpt>
      <trkpt lat="46.86781" lon="-2.05364">
        <ele>1</ele>
        <time>2018-04-20T23:33:58Z</time>
      </trkpt>
      <trkpt lat="46.86781" lon="-2.05349">
        <ele>2</ele>
        <time>2018-04-20T23:34:58Z</time>
      </trkpt>
      <trkpt lat="46.86798" lon="-2.053">
        <ele>1</ele>
        <time>2018-04-20T23:35:58Z</time>
      </trkpt>
      <trkpt lat="46.86792" lon="-2.05138">
        <ele>2</ele>
        <time>2018-04-20T23:36:58Z</time>
      </trkpt>
      <trkpt lat="46.86825" lon="-2.05003">
        <ele>1</ele>
        <time>2018-04-20T23:37:58Z</time>
      </trkpt>
      <trkpt lat="46.86875" lon="-2.0476">
        <ele>1</ele>
        <time>2018-04-20T23:38:58Z</time>
      </trkpt>
      <trkpt lat="46.86904" lon="-2.04706">
        <ele>1</ele>
        <time>2018-04-20T23:39:58Z</time>
      </trkpt>
      <trkpt lat="46.86942" lon="-2.04615">
        <ele>1</ele>
        <time>2018-04-20T23:40:58Z</time>
      </trkpt>
      <trkpt lat="46.86981" lon="-2.04532">
        <ele>1</ele>
        <time>2018-04-20T23:41:58Z</time>
      </trkpt>
      <trkpt lat="46.87004" lon="-2.04465">
        <ele>1</ele>
        <time>2018-04-20T23:42:58Z</time>
      </trkpt>
      <trkpt lat="46.87011" lon="-2.04431">
        <ele>1</ele>
        <time>2018-04-20T23:43:58Z</time>
      </trkpt>
      <trkpt lat="46.87025" lon="-2.043">
        <ele>2</ele>
        <time>2018-04-20T23:44:58Z</time>
      </trkpt>
      <trkpt lat="46.87041" lon="-2.04128">
        <ele>1.7</ele>
        <time>2018-04-20T23:45:58Z</time>
      </trkpt>
      <trkpt lat="46.87054" lon="-2.04018">
        <ele>1</ele>
        <time>2018-04-20T23:46:58Z</time>
      </trkpt>
      <trkpt lat="46.87063" lon="-2.03976">
        <ele>1</ele>
        <time>2018-04-20T23:47:58Z</time>
      </trkpt>
      <trkpt lat="46.87129" lon="-2.0376">
        <ele>1</ele>
        <time>2018-04-20T23:48:58Z</time>
      </trkpt>
      <trkpt lat="46.87143" lon="-2.0373">
        <ele>1</ele>
        <time>2018-04-20T23:49:58Z</time>
      </trkpt>
      <trkpt lat="46.87152" lon="-2.03716">
        <ele>1</ele>
        <time>2018-04-20T23:50:58Z</time>
      </trkpt>
      <trkpt lat="46.87181" lon="-2.03685">
        <ele>1</ele>
        <time>2018-04-20T23:51:58Z</time>
      </trkpt>
      <trkpt lat="46.87258" lon="-2.03611">
        <ele>2</ele>
        <time>2018-04-20T23:52:58Z</time>
      </trkpt>
      <trkpt lat="46.87253" lon="-2.03574">
        <ele>1.7</ele>
        <time>2018-04-20T23:53:58Z</time>
      </trkpt>
      <trkpt lat="46.8725" lon="-2.03503">
        <ele>2</ele>
        <time>2018-04-20T23:54:58Z</time>
      </trkpt>
      <trkpt lat="46.87257" lon="-2.03456">
        <ele>1.6</ele>
        <time>2018-04-20T23:55:58Z</time>
      </trkpt>
      <trkpt lat="46.87277" lon="-2.03415">
        <ele>1.9</ele>
        <time>2018-04-20T23:56:58Z</time>
      </trkpt>
      <trkpt lat="46.87339" lon="-2.03319">
        <ele>2</ele>
        <time>2018-04-20T23:57:58Z</time>
      </trkpt>
      <trkpt lat="46.8736" lon="-2.03278">
        <ele>2</ele>
        <time>2018-04-20T23:58:58Z</time>
      </trkpt>
      <trkpt lat="46.87373" lon="-2.03243">
        <ele>2</ele>
        <time>2018-04-20T23:59:58Z</time>
      </trkpt>
      <trkpt lat="46.87423" lon="-2.03068">
        <ele>2</ele>
        <time>2018-04-21T00:00:58Z</time>
      </trkpt>
      <trkpt lat="46.87448" lon="-2.02975">
        <ele>1</ele>
        <time>2018-04-21T00:01:58Z</time>
      </trkpt>
      <trkpt lat="46.87463" lon="-2.02891">
        <ele>1</ele>
        <time>2018-04-21T00:02:58Z</time>
      </trkpt>
      <trkpt lat="46.87478" lon="-2.02778">
        <ele>1</ele>
        <time>2018-04-21T00:03:58Z</time>
      </trkpt>
      <trkpt lat="46.87489" lon="-2.02741">
        <ele>2.2</ele>
        <time>2018-04-21T00:04:58Z</time>
      </trkpt>
      <trkpt lat="46.87508" lon="-2.02705">
        <ele>2</ele>
        <time>2018-04-21T00:05:58Z</time>
      </trkpt>
      <trkpt lat="46.87561" lon="-2.02617">
        <ele>1</ele>
        <time>2018-04-21T00:06:58Z</time>
      </trkpt>
      <trkpt lat="46.87579" lon="-2.02583">
        <ele>1.8</ele>
        <time>2018-04-21T00:07:58Z</time>
      </trkpt>
      <trkpt lat="46.87591" lon="-2.02539">
        <ele>1</ele>
        <time>2018-04-21T00:08:58Z</time>
      </trkpt>
      <trkpt lat="46.87598" lon="-2.02497">
        <ele>1</ele>
        <time>2018-04-21T00:09:58Z</time>
      </trkpt>
      <trkpt lat="46.87608" lon="-2.02406">
        <ele>1.9</ele>
        <time>2018-04-21T00:10:58Z</time>
      </trkpt>
      <trkpt lat="46.87631" lon="-2.02242">
        <ele>1</ele>
        <time>2018-04-21T00:11:58Z</time>
      </trkpt>
      <trkpt lat="46.87647" lon="-2.02174">
        <ele>2.1</ele>
        <time>2018-04-21T00:12:58Z</time>
      </trkpt>
      <trkpt lat="46.87682" lon="-2.02053">
        <ele>1</ele>
        <time>2018-04-21T00:13:58Z</time>
      </trkpt>
      <trkpt lat="46.87692" lon="-2.02015">
        <ele>1</ele>
        <time>2018-04-21T00:14:58Z</time>
      </trkpt>
      <trkpt lat="46.87695" lon="-2.01996">
        <ele>2</ele>
        <time>2018-04-21T00:15:58Z</time>
      </trkpt>
      <trkpt lat="46.87708" lon="-2.01857">
        <ele>2</ele>
        <time>2018-04-21T00:16:58Z</time>
      </trkpt>
      <trkpt lat="46.87707" lon="-2.01832">
        <ele>2</ele>
        <time>2018-04-21T00:17:58Z</time>
      </trkpt>
      <trkpt lat="46.87696" lon="-2.01729">
        <ele>2</ele>
        <time>2018-04-21T00:18:58Z</time>
      </trkpt>
      <trkpt lat="46.87694" lon="-2.01697">
        <ele>2</ele>
        <time>2018-04-21T00:19:58Z</time>
      </trkpt>
      <trkpt lat="46.87694" lon="-2.01561">
        <ele>2</ele>
        <time>2018-04-21T00:20:58Z</time>
      </trkpt>
      <trkpt lat="46.87692" lon="-2.01533">
        <ele>2</ele>
        <time>2018-04-21T00:21:58Z</time>
      </trkpt>
      <trkpt lat="46.8767" lon="-2.01392">
        <ele>1</ele>
        <time>2018-04-21T00:22:58Z</time>
      </trkpt>
      <trkpt lat="46.87663" lon="-2.01364">
        <ele>1</ele>
        <time>2018-04-21T00:23:58Z</time>
      </trkpt>
      <trkpt lat="46.87646" lon="-2.01276">
        <ele>2</ele>
        <time>2018-04-21T00:24:58Z</time>
      </trkpt>
      <trkpt lat="46.87645" lon="-2.01251">
        <ele>3</ele>
        <time>2018-04-21T00:25:58Z</time>
      </trkpt>
      <trkpt lat="46.87648" lon="-2.01203">
        <ele>3</ele>
        <time>2018-04-21T00:26:58Z</time>
      </trkpt>
      <trkpt lat="46.87662" lon="-2.01056">
        <ele>2</ele>
        <time>2018-04-21T00:27:58Z</time>
      </trkpt>
      <trkpt lat="46.87671" lon="-2.00949">
        <ele>3</ele>
        <time>2018-04-21T00:28:58Z</time>
      </trkpt>
      <trkpt lat="46.87669" lon="-2.00939">
        <ele>3</ele>
        <time>2018-04-21T00:29:58Z</time>
      </trkpt>
      <trkpt lat="46.87665" lon="-2.0094">
        <ele>3</ele>
        <time>2018-04-21T00:30:58Z</time>
      </trkpt>
      <trkpt lat="46.87662" lon="-2.00937">
        <ele>3</ele>
        <time>2018-04-21T00:31:58Z</time>
      </trkpt>
      <trkpt lat="46.87661" lon="-2.00929">
        <ele>3</ele>
        <time>2018-04-21T00:32:58Z</time>
      </trkpt>
      <trkpt lat="46.87662" lon="-2.00926">
        <ele>3</ele>
        <time>2018-04-21T00:33:58Z</time>
      </trkpt>
      <trkpt lat="46.87666" lon="-2.00923">
        <ele>3</ele>
        <time>2018-04-21T00:34:58Z</time>
      </trkpt>
      <trkpt lat="46.8767" lon="-2.00925">
        <ele>3</ele>
        <time>2018-04-21T00:35:58Z</time>
      </trkpt>
      <trkpt lat="46.87672" lon="-2.0093">
        <ele>3</ele>
        <time>2018-04-21T00:36:58Z</time>
      </trkpt>
      <trkpt lat="46.87684" lon="-2.00927">
        <ele>3</ele>
        <time>2018-04-21T00:37:58Z</time>
      </trkpt>
      <trkpt lat="46.87797" lon="-2.00932">
        <ele>2</ele>
        <time>2018-04-21T00:38:58Z</time>
      </trkpt>
      <trkpt lat="46.87797" lon="-2.00932">
        <ele>2</ele>
        <time>2018-04-21T00:39:58Z</time>
      </trkpt>
      <trkpt lat="46.87823" lon="-2.0093">
        <ele>2</ele>
        <time>2018-04-21T00:40:58Z</time>
      </trkpt>
      <trkpt lat="46.87841" lon="-2.00927">
        <ele>2</ele>
        <time>2018-04-21T00:41:58Z</time>
      </trkpt>
      <trkpt lat="46.87869" lon="-2.00917">
        <ele>2</ele>
        <time>2018-04-21T00:42:58Z</time>
      </trkpt>
      <trkpt lat="46.87909" lon="-2.00898">
        <ele>2</ele>
        <time>2018-04-21T00:43:58Z</time>
      </trkpt>
      <trkpt lat="46.88015" lon="-2.00833">
        <ele>2</ele>
        <time>2018-04-21T00:44:58Z</time>
      </trkpt>
      <trkpt lat="46.88055" lon="-2.00824">
        <ele>1</ele>
        <time>2018-04-21T00:45:58Z</time>
      </trkpt>
      <trkpt lat="46.88077" lon="-2.00817">
        <ele>1</ele>
        <time>2018-04-21T00:46:58Z</time>
      </trkpt>
      <trkpt lat="46.88097" lon="-2.00797">
        <ele>2</ele>
        <time>2018-04-21T00:47:58Z</time>
      </trkpt>
      <trkpt lat="46.881" lon="-2.00787">
        <ele>2</ele>
        <time>2018-04-21T00:48:58Z</time>
      </trkpt>
      <trkpt lat="46.88104" lon="-2.00784">
        <ele>2</ele>
        <time>2018-04-21T00:49:58Z</time>
      </trkpt>
      <trkpt lat="46.88111" lon="-2.00784">
        <ele>2</ele>
        <time>2018-04-21T00:50:58Z</time>
      </trkpt>
      <trkpt lat="46.88115" lon="-2.00788">
        <ele>2</ele>
        <time>2018-04-21T00:51:58Z</time>
      </trkpt>
      <trkpt lat="46.88117" lon="-2.00794">
        <ele>2</ele>
        <time>2018-04-21T00:52:58Z</time>
      </trkpt>
      <trkpt lat="46.88126" lon="-2.008">
        <ele>2</ele>
        <time>2018-04-21T00:53:58Z</time>
      </trkpt>
      <trkpt lat="46.88139" lon="-2.00805">
        <ele>2</ele>
        <time>2018-04-21T00:54:58Z</time>
      </trkpt>
      <trkpt lat="46.88147" lon="-2.00805">
        <ele>2</ele>
        <time>2018-04-21T00:55:58Z</time>
      </trkpt>
      <trkpt lat="46.88368" lon="-2.00795">
        <ele>4</ele>
        <time>2018-04-21T00:56:58Z</time>
      </trkpt>
      <trkpt lat="46.88422" lon="-2.00787">
        <ele>4</ele>
        <time>2018-04-21T00:57:58Z</time>
      </trkpt>
      <trkpt lat="46.88642" lon="-2.00735">
        <ele>3</ele>
        <time>2018-04-21T00:58:58Z</time>
      </trkpt>
      <trkpt lat="46.89027" lon="-2.00611">
        <ele>2</ele>
        <time>2018-04-21T00:59:58Z</time>
      </trkpt>
      <trkpt lat="46.89152" lon="-2.00569">
        <ele>2</ele>
        <time>2018-04-21T01:00:58Z</time>
      </trkpt>
      <trkpt lat="46.89199" lon="-2.00549">
        <ele>1</ele>
        <time>2018-04-21T01:01:58Z</time>
      </trkpt>
      <trkpt lat="46.89519" lon="-2.00355">
        <ele>3</ele>
        <time>2018-04-21T01:02:58Z</time>
      </trkpt>
      <trkpt lat="46.89664" lon="-2.00293">
        <ele>3</ele>
        <time>2018-04-21T01:03:58Z</time>
      </trkpt>
      <trkpt lat="46.89893" lon="-2.00192">
        <ele>4</ele>
        <time>2018-04-21T01:04:58Z</time>
      </trkpt>
      <trkpt lat="46.89892" lon="-2.00184">
        <ele>4</ele>
        <time>2018-04-21T01:05:58Z</time>
      </trkpt>
      <trkpt lat="46.89894" lon="-2.00174">
        <ele>4</ele>
        <time>2018-04-21T01:06:58Z</time>
      </trkpt>
      <trkpt lat="46.89898" lon="-2.00167">
        <ele>4</ele>
        <time>2018-04-21T01:07:58Z</time>
      </trkpt>
      <trkpt lat="46.89904" lon="-2.00162">
        <ele>4</ele>
        <time>2018-04-21T01:08:58Z</time>
      </trkpt>
      <trkpt lat="46.89915" lon="-2.00162">
        <ele>4</ele>
        <time>2018-04-21T01:09:58Z</time>
      </trkpt>
      <trkpt lat="46.89921" lon="-2.00166">
        <ele>4</ele>
        <time>2018-04-21T01:10:58Z</time>
      </trkpt>
      <trkpt lat="46.89926" lon="-2.00179">
        <ele>4</ele>
        <time>2018-04-21T01:11:58Z</time>
      </trkpt>
      <trkpt lat="46.8996" lon="-2.00164">
        <ele>4</ele>
        <time>2018-04-21T01:12:58Z</time>
      </trkpt>
      <trkpt lat="46.90002" lon="-2.00149">
        <ele>4</ele>
        <time>2018-04-21T01:13:58Z</time>
      </trkpt>
      <trkpt lat="46.90149" lon="-2.00105">
        <ele>6</ele>
        <time>2018-04-21T01:14:58Z</time>
      </trkpt>
      <trkpt lat="46.90174" lon="-2.00099">
        <ele>6</ele>
        <time>2018-04-21T01:15:58Z</time>
      </trkpt>
      <trkpt lat="46.90242" lon="-2.00088">
        <ele>7</ele>
        <time>2018-04-21T01:16:58Z</time>
      </trkpt>
      <trkpt lat="46.90261" lon="-1.99953">
        <ele>10</ele>
        <time>2018-04-21T01:17:58Z</time>
      </trkpt>
      <trkpt lat="46.9026" lon="-1.99919">
        <ele>10</ele>
        <time>2018-04-21T01:18:58Z</time>
      </trkpt>
      <trkpt lat="46.90251" lon="-1.99896">
        <ele>10</ele>
        <time>2018-04-21T01:19:58Z</time>
      </trkpt>
      <trkpt lat="46.90209" lon="-1.99836">
        <ele>9</ele>
        <time>2018-04-21T01:20:58Z</time>
      </trkpt>
      <trkpt lat="46.90201" lon="-1.99816">
        <ele>8</ele>
        <time>2018-04-21T01:21:58Z</time>
      </trkpt>
      <trkpt lat="46.90191" lon="-1.99779">
        <ele>8</ele>
        <time>2018-04-21T01:22:58Z</time>
      </trkpt>
      <trkpt lat="46.90167" lon="-1.99647">
        <ele>9</ele>
        <time>2018-04-21T01:23:58Z</time>
      </trkpt>
      <trkpt lat="46.90164" lon="-1.99618">
        <ele>9</ele>
        <time>2018-04-21T01:24:58Z</time>
      </trkpt>
      <trkpt lat="46.90133" lon="-1.99217">
        <ele>11</ele>
        <time>2018-04-21T01:25:58Z</time>
      </trkpt>
      <trkpt lat="46.90188" lon="-1.99195">
        <ele>12</ele>
        <time>2018-04-21T01:26:58Z</time>
      </trkpt>
      <trkpt lat="46.90287" lon="-1.99149">
        <ele>13</ele>
        <time>2018-04-21T01:27:58Z</time>
      </trkpt>
      <trkpt lat="46.90287" lon="-1.99149">
        <ele>13</ele>
        <time>2018-04-21T01:28:58Z</time>
      </trkpt>
      <trkpt lat="46.90591" lon="-1.99005">
        <ele>23</ele>
        <time>2018-04-21T01:29:58Z</time>
      </trkpt>
      <trkpt lat="46.90595" lon="-1.99003">
        <ele>23</ele>
        <time>2018-04-21T01:30:58Z</time>
      </trkpt>
      <trkpt lat="46.90601" lon="-1.98994">
        <ele>23</ele>
        <time>2018-04-21T01:31:58Z</time>
      </trkpt>
      <trkpt lat="46.90602" lon="-1.98989">
        <ele>23</ele>
        <time>2018-04-21T01:32:58Z</time>
      </trkpt>
      <trkpt lat="46.906" lon="-1.98974">
        <ele>23</ele>
        <time>2018-04-21T01:33:58Z</time>
      </trkpt>
      <trkpt lat="46.90593" lon="-1.98949">
        <ele>23</ele>
        <time>2018-04-21T01:34:58Z</time>
      </trkpt>
      <trkpt lat="46.90555" lon="-1.98845">
        <ele>21</ele>
        <time>2018-04-21T01:35:58Z</time>
      </trkpt>
      <trkpt lat="46.90535" lon="-1.98784">
        <ele>20</ele>
        <time>2018-04-21T01:36:58Z</time>
      </trkpt>
      <trkpt lat="46.90532" lon="-1.98768">
        <ele>20</ele>
        <time>2018-04-21T01:37:58Z</time>
      </trkpt>
      <trkpt lat="46.90528" lon="-1.98734">
        <ele>20</ele>
        <time>2018-04-21T01:38:58Z</time>
      </trkpt>
      <trkpt lat="46.90528" lon="-1.98711">
        <ele>20</ele>
        <time>2018-04-21T01:39:58Z</time>
      </trkpt>
      <trkpt lat="46.90531" lon="-1.98681">
        <ele>21</ele>
        <time>2018-04-21T01:40:58Z</time>
      </trkpt>
      <trkpt lat="46.90566" lon="-1.98595">
        <ele>21</ele>
        <time>2018-04-21T01:41:58Z</time>
      </trkpt>
      <trkpt lat="46.90584" lon="-1.98538">
        <ele>22</ele>
        <time>2018-04-21T01:42:58Z</time>
      </trkpt>
      <trkpt lat="46.90597" lon="-1.98455">
        <ele>24</ele>
        <time>2018-04-21T01:43:58Z</time>
      </trkpt>
      <trkpt lat="46.90604" lon="-1.98333">
        <ele>26</ele>
        <time>2018-04-21T01:44:58Z</time>
      </trkpt>
      <trkpt lat="46.9061" lon="-1.98302">
        <ele>27</ele>
        <time>2018-04-21T01:45:58Z</time>
      </trkpt>
      <trkpt lat="46.90622" lon="-1.98273">
        <ele>27</ele>
        <time>2018-04-21T01:46:58Z</time>
      </trkpt>
      <trkpt lat="46.9063" lon="-1.98262">
        <ele>27</ele>
        <time>2018-04-21T01:47:58Z</time>
      </trkpt>
      <trkpt lat="46.90701" lon="-1.9819">
        <ele>29</ele>
        <time>2018-04-21T01:48:58Z</time>
      </trkpt>
      <trkpt lat="46.90728" lon="-1.98147">
        <ele>30</ele>
        <time>2018-04-21T01:49:58Z</time>
      </trkpt>
      <trkpt lat="46.90748" lon="-1.98104">
        <ele>31</ele>
        <time>2018-04-21T01:50:58Z</time>
      </trkpt>
      <trkpt lat="46.90757" lon="-1.98077">
        <ele>31</ele>
        <time>2018-04-21T01:51:58Z</time>
      </trkpt>
      <trkpt lat="46.90763" lon="-1.98042">
        <ele>30</ele>
        <time>2018-04-21T01:52:58Z</time>
      </trkpt>
      <trkpt lat="46.90768" lon="-1.97895">
        <ele>29</ele>
        <time>2018-04-21T01:53:58Z</time>
      </trkpt>
      <trkpt lat="46.90768" lon="-1.97821">
        <ele>28</ele>
        <time>2018-04-21T01:54:58Z</time>
      </trkpt>
      <trkpt lat="46.90772" lon="-1.97787">
        <ele>27</ele>
        <time>2018-04-21T01:55:58Z</time>
      </trkpt>
      <trkpt lat="46.9078" lon="-1.97749">
        <ele>26</ele>
        <time>2018-04-21T01:56:58Z</time>
      </trkpt>
      <trkpt lat="46.90952" lon="-1.97053">
        <ele>31</ele>
        <time>2018-04-21T01:57:58Z</time>
      </trkpt>
      <trkpt lat="46.91042" lon="-1.9678">
        <ele>31</ele>
        <time>2018-04-21T01:58:58Z</time>
      </trkpt>
      <trkpt lat="46.91303" lon="-1.96">
        <ele>31</ele>
        <time>2018-04-21T01:59:58Z</time>
      </trkpt>
      <trkpt lat="46.91646" lon="-1.9468">
        <ele>26</ele>
        <time>2018-04-21T02:00:58Z</time>
      </trkpt>
      <trkpt lat="46.9166" lon="-1.94617">
        <ele>27</ele>
        <time>2018-04-21T02:01:58Z</time>
      </trkpt>
      <trkpt lat="46.9167" lon="-1.94551">
        <ele>26</ele>
        <time>2018-04-21T02:02:58Z</time>
      </trkpt>
      <trkpt lat="46.91674" lon="-1.94501">
        <ele>24</ele>
        <time>2018-04-21T02:03:58Z</time>
      </trkpt>
      <trkpt lat="46.91718" lon="-1.93779">
        <ele>21</ele>
        <time>2018-04-21T02:04:58Z</time>
      </trkpt>
      <trkpt lat="46.91724" lon="-1.93738">
        <ele>20</ele>
        <time>2018-04-21T02:05:58Z</time>
      </trkpt>
      <trkpt lat="46.91734" lon="-1.93689">
        <ele>19</ele>
        <time>2018-04-21T02:06:58Z</time>
      </trkpt>
      <trkpt lat="46.91825" lon="-1.93285">
        <ele>13</ele>
        <time>2018-04-21T02:07:58Z</time>
      </trkpt>
      <trkpt lat="46.91852" lon="-1.93155">
        <ele>15</ele>
        <time>2018-04-21T02:08:58Z</time>
      </trkpt>
      <trkpt lat="46.91889" lon="-1.92893">
        <ele>14</ele>
        <time>2018-04-21T02:09:58Z</time>
      </trkpt>
      <trkpt lat="46.91934" lon="-1.92548">
        <ele>11</ele>
        <time>2018-04-21T02:10:58Z</time>
      </trkpt>
      <trkpt lat="46.91936" lon="-1.92464">
        <ele>10</ele>
        <time>2018-04-21T02:11:58Z</time>
      </trkpt>
      <trkpt lat="46.91929" lon="-1.92374">
        <ele>10</ele>
        <time>2018-04-21T02:12:58Z</time>
      </trkpt>
      <trkpt lat="46.91906" lon="-1.92129">
        <ele>11</ele>
        <time>2018-04-21T02:13:58Z</time>
      </trkpt>
      <trkpt lat="46.91907" lon="-1.92091">
        <ele>11</ele>
        <time>2018-04-21T02:14:58Z</time>
      </trkpt>
      <trkpt lat="46.91914" lon="-1.92043">
        <ele>11</ele>
        <time>2018-04-21T02:15:58Z</time>
      </trkpt>
      <trkpt lat="46.9194" lon="-1.91899">
        <ele>9</ele>
        <time>2018-04-21T02:16:58Z</time>
      </trkpt>
      <trkpt lat="46.91942" lon="-1.9187">
        <ele>9</ele>
        <time>2018-04-21T02:17:58Z</time>
      </trkpt>
      <trkpt lat="46.91944" lon="-1.91774">
        <ele>9</ele>
        <time>2018-04-21T02:18:58Z</time>
      </trkpt>
      <trkpt lat="46.9194" lon="-1.91748">
        <ele>9</ele>
        <time>2018-04-21T02:19:58Z</time>
      </trkpt>
      <trkpt lat="46.91934" lon="-1.91726">
        <ele>9</ele>
        <time>2018-04-21T02:20:58Z</time>
      </trkpt>
      <trkpt lat="46.91894" lon="-1.91588">
        <ele>9</ele>
        <time>2018-04-21T02:21:58Z</time>
      </trkpt>
      <trkpt lat="46.91848" lon="-1.91432">
        <ele>8</ele>
        <time>2018-04-21T02:22:58Z</time>
      </trkpt>
      <trkpt lat="46.9174" lon="-1.91179">
        <ele>11</ele>
        <time>2018-04-21T02:23:58Z</time>
      </trkpt>
      <trkpt lat="46.91735" lon="-1.91158">
        <ele>11</ele>
        <time>2018-04-21T02:24:58Z</time>
      </trkpt>
      <trkpt lat="46.91728" lon="-1.91101">
        <ele>10</ele>
        <time>2018-04-21T02:25:58Z</time>
      </trkpt>
      <trkpt lat="46.91702" lon="-1.91116">
        <ele>11</ele>
        <time>2018-04-21T02:26:58Z</time>
      </trkpt>
      <trkpt lat="46.91662" lon="-1.91147">
        <ele>11</ele>
        <time>2018-04-21T02:27:58Z</time>
      </trkpt>
      <trkpt lat="46.91638" lon="-1.91161">
        <ele>11</ele>
        <time>2018-04-21T02:28:58Z</time>
      </trkpt>
      <trkpt lat="46.91615" lon="-1.91171">
        <ele>11</ele>
        <time>2018-04-21T02:29:58Z</time>
      </trkpt>
      <trkpt lat="46.91469" lon="-1.91191">
        <ele>15</ele>
        <time>2018-04-21T02:30:58Z</time>
      </trkpt>
      <trkpt lat="46.91425" lon="-1.91202">
        <ele>16</ele>
        <time>2018-04-21T02:31:58Z</time>
      </trkpt>
      <trkpt lat="46.91394" lon="-1.91214">
        <ele>16</ele>
        <time>2018-04-21T02:32:58Z</time>
      </trkpt>
      <trkpt lat="46.9127" lon="-1.9127">
        <ele>16</ele>
        <time>2018-04-21T02:33:58Z</time>
      </trkpt>
      <trkpt lat="46.9127" lon="-1.9127">
        <ele>16</ele>
        <time>2018-04-21T02:34:58Z</time>
      </trkpt>
      <trkpt lat="46.91164" lon="-1.91318">
        <ele>18</ele>
        <time>2018-04-21T02:35:58Z</time>
      </trkpt>
      <trkpt lat="46.90872" lon="-1.91464">
        <ele>22</ele>
        <time>2018-04-21T02:36:58Z</time>
      </trkpt>
      <trkpt lat="46.90783" lon="-1.91512">
        <ele>22</ele>
        <time>2018-04-21T02:37:58Z</time>
      </trkpt>
      <trkpt lat="46.90421" lon="-1.91689">
        <ele>12</ele>
        <time>2018-04-21T02:38:58Z</time>
      </trkpt>
      <trkpt lat="46.9039" lon="-1.91701">
        <ele>12</ele>
        <time>2018-04-21T02:39:58Z</time>
      </trkpt>
      <trkpt lat="46.90375" lon="-1.91704">
        <ele>12</ele>
        <time>2018-04-21T02:40:58Z</time>
      </trkpt>
      <trkpt lat="46.89965" lon="-1.9173">
        <ele>11</ele>
        <time>2018-04-21T02:41:58Z</time>
      </trkpt>
      <trkpt lat="46.89947" lon="-1.9173">
        <ele>11</ele>
        <time>2018-04-21T02:42:58Z</time>
      </trkpt>
      <trkpt lat="46.89918" lon="-1.91725">
        <ele>10</ele>
        <time>2018-04-21T02:43:58Z</time>
      </trkpt>
      <trkpt lat="46.89736" lon="-1.91682">
        <ele>10</ele>
        <time>2018-04-21T02:44:58Z</time>
      </trkpt>
      <trkpt lat="46.89457" lon="-1.91621">
        <ele>10</ele>
        <time>2018-04-21T02:45:58Z</time>
      </trkpt>
      <trkpt lat="46.89429" lon="-1.91618">
        <ele>10</ele>
        <time>2018-04-21T02:46:58Z</time>
      </trkpt>
      <trkpt lat="46.89405" lon="-1.91625">
        <ele>10</ele>
        <time>2018-04-21T02:47:58Z</time>
      </trkpt>
      <trkpt lat="46.8938" lon="-1.91638">
        <ele>10</ele>
        <time>2018-04-21T02:48:58Z</time>
      </trkpt>
      <trkpt lat="46.89307" lon="-1.91766">
        <ele>10</ele>
        <time>2018-04-21T02:49:58Z</time>
      </trkpt>
      <trkpt lat="46.89222" lon="-1.91903">
        <ele>10</ele>
        <time>2018-04-21T02:50:58Z</time>
      </trkpt>
      <trkpt lat="46.88977" lon="-1.92334">
        <ele>13</ele>
        <time>2018-04-21T02:51:58Z</time>
      </trkpt>
      <trkpt lat="46.88937" lon="-1.92406">
        <ele>12</ele>
        <time>2018-04-21T02:52:58Z</time>
      </trkpt>
      <trkpt lat="46.88929" lon="-1.92429">
        <ele>12</ele>
        <time>2018-04-21T02:53:58Z</time>
      </trkpt>
      <trkpt lat="46.88916" lon="-1.92492">
        <ele>11</ele>
        <time>2018-04-21T02:54:58Z</time>
      </trkpt>
      <trkpt lat="46.88898" lon="-1.9265">
        <ele>13</ele>
        <time>2018-04-21T02:55:58Z</time>
      </trkpt>
      <trkpt lat="46.88886" lon="-1.92681">
        <ele>13</ele>
        <time>2018-04-21T02:56:58Z</time>
      </trkpt>
      <trkpt lat="46.8872" lon="-1.9287">
        <ele>13</ele>
        <time>2018-04-21T02:57:58Z</time>
      </trkpt>
      <trkpt lat="46.88679" lon="-1.92909">
        <ele>13</ele>
        <time>2018-04-21T02:58:58Z</time>
      </trkpt>
      <trkpt lat="46.88563" lon="-1.92981">
        <ele>13</ele>
        <time>2018-04-21T02:59:58Z</time>
      </trkpt>
      <trkpt lat="46.88513" lon="-1.93016">
        <ele>14</ele>
        <time>2018-04-21T03:00:58Z</time>
      </trkpt>
      <trkpt lat="46.88403" lon="-1.93125">
        <ele>13</ele>
        <time>2018-04-21T03:01:58Z</time>
      </trkpt>
      <trkpt lat="46.8838" lon="-1.93146">
        <ele>14</ele>
        <time>2018-04-21T03:02:58Z</time>
      </trkpt>
      <trkpt lat="46.88295" lon="-1.93192">
        <ele>15</ele>
        <time>2018-04-21T03:03:58Z</time>
      </trkpt>
      <trkpt lat="46.88008" lon="-1.93306">
        <ele>12</ele>
        <time>2018-04-21T03:04:58Z</time>
      </trkpt>
      <trkpt lat="46.88028" lon="-1.93375">
        <ele>12</ele>
        <time>2018-04-21T03:05:58Z</time>
      </trkpt>
      <trkpt lat="46.8806" lon="-1.93469">
        <ele>12</ele>
        <time>2018-04-21T03:06:58Z</time>
      </trkpt>
      <trkpt lat="46.88114" lon="-1.93679">
        <ele>13</ele>
        <time>2018-04-21T03:07:58Z</time>
      </trkpt>
      <trkpt lat="46.88157" lon="-1.9383">
        <ele>11</ele>
        <time>2018-04-21T03:08:58Z</time>
      </trkpt>
      <trkpt lat="46.8816" lon="-1.93842">
        <ele>11</ele>
        <time>2018-04-21T03:09:58Z</time>
      </trkpt>
      <trkpt lat="46.88167" lon="-1.93895">
        <ele>11</ele>
        <time>2018-04-21T03:10:58Z</time>
      </trkpt>
      <trkpt lat="46.88175" lon="-1.94183">
        <ele>11</ele>
        <time>2018-04-21T03:11:58Z</time>
      </trkpt>
      <trkpt lat="46.88174" lon="-1.94215">
        <ele>11</ele>
        <time>2018-04-21T03:12:58Z</time>
      </trkpt>
      <trkpt lat="46.88161" lon="-1.94425">
        <ele>9</ele>
        <time>2018-04-21T03:13:58Z</time>
      </trkpt>
      <trkpt lat="46.88106" lon="-1.94421">
        <ele>9</ele>
        <time>2018-04-21T03:14:58Z</time>
      </trkpt>
      <trkpt lat="46.88106" lon="-1.94421">
        <ele>9</ele>
        <time>2018-04-21T03:15:58Z</time>
      </trkpt>
      <trkpt lat="46.88041" lon="-1.94428">
        <ele>10</ele>
        <time>2018-04-21T03:16:58Z</time>
      </trkpt>
      <trkpt lat="46.87999" lon="-1.94441">
        <ele>10</ele>
        <time>2018-04-21T03:17:58Z</time>
      </trkpt>
      <trkpt lat="46.87906" lon="-1.94496">
        <ele>12</ele>
        <time>2018-04-21T03:18:58Z</time>
      </trkpt>
      <trkpt lat="46.87883" lon="-1.94512">
        <ele>12</ele>
        <time>2018-04-21T03:19:58Z</time>
      </trkpt>
      <trkpt lat="46.87851" lon="-1.94539">
        <ele>12</ele>
        <time>2018-04-21T03:20:58Z</time>
      </trkpt>
      <trkpt lat="46.87795" lon="-1.94579">
        <ele>12</ele>
        <time>2018-04-21T03:21:58Z</time>
      </trkpt>
      <trkpt lat="46.87751" lon="-1.94602">
        <ele>12</ele>
        <time>2018-04-21T03:22:58Z</time>
      </trkpt>
      <trkpt lat="46.87662" lon="-1.94631">
        <ele>14</ele>
        <time>2018-04-21T03:23:58Z</time>
      </trkpt>
      <trkpt lat="46.87625" lon="-1.94645">
        <ele>15</ele>
        <time>2018-04-21T03:24:58Z</time>
      </trkpt>
      <trkpt lat="46.87574" lon="-1.94669">
        <ele>16</ele>
        <time>2018-04-21T03:25:58Z</time>
      </trkpt>
      <trkpt lat="46.87539" lon="-1.94681">
        <ele>15</ele>
        <time>2018-04-21T03:26:58Z</time>
      </trkpt>
      <trkpt lat="46.87468" lon="-1.94694">
        <ele>15</ele>
        <time>2018-04-21T03:27:58Z</time>
      </trkpt>
      <trkpt lat="46.87446" lon="-1.94703">
        <ele>14</ele>
        <time>2018-04-21T03:28:58Z</time>
      </trkpt>
      <trkpt lat="46.87443" lon="-1.94696">
        <ele>15</ele>
        <time>2018-04-21T03:29:58Z</time>
      </trkpt>
      <trkpt lat="46.87281" lon="-1.94784">
        <ele>11</ele>
        <time>2018-04-21T03:30:58Z</time>
      </trkpt>
      <trkpt lat="46.87206" lon="-1.94822">
        <ele>10</ele>
        <time>2018-04-21T03:31:58Z</time>
      </trkpt>
      <trkpt lat="46.87147" lon="-1.94856">
        <ele>9</ele>
        <time>2018-04-21T03:32:58Z</time>
      </trkpt>
      <trkpt lat="46.87094" lon="-1.94883">
        <ele>8</ele>
        <time>2018-04-21T03:33:58Z</time>
      </trkpt>
      <trkpt lat="46.86873" lon="-1.94974">
        <ele>5</ele>
        <time>2018-04-21T03:34:58Z</time>
      </trkpt>
      <trkpt lat="46.86817" lon="-1.94985">
        <ele>5</ele>
        <time>2018-04-21T03:35:58Z</time>
      </trkpt>
      <trkpt lat="46.86792" lon="-1.94986">
        <ele>5</ele>
        <time>2018-04-21T03:36:58Z</time>
      </trkpt>
      <trkpt lat="46.86791" lon="-1.94993">
        <ele>5</ele>
        <time>2018-04-21T03:37:58Z</time>
      </trkpt>
      <trkpt lat="46.86789" lon="-1.94999">
        <ele>5</ele>
        <time>2018-04-21T03:38:58Z</time>
      </trkpt>
      <trkpt lat="46.86785" lon="-1.95003">
        <ele>5</ele>
        <time>2018-04-21T03:39:58Z</time>
      </trkpt>
      <trkpt lat="46.86776" lon="-1.95002">
        <ele>5</ele>
        <time>2018-04-21T03:40:58Z</time>
      </trkpt>
      <trkpt lat="46.86771" lon="-1.94994">
        <ele>5</ele>
        <time>2018-04-21T03:41:58Z</time>
      </trkpt>
      <trkpt lat="46.8677" lon="-1.94989">
        <ele>5</ele>
        <time>2018-04-21T03:42:58Z</time>
      </trkpt>
      <trkpt lat="46.86724" lon="-1.95001">
        <ele>5</ele>
        <time>2018-04-21T03:43:58Z</time>
      </trkpt>
      <trkpt lat="46.86619" lon="-1.95045">
        <ele>4</ele>
        <time>2018-04-21T03:44:58Z</time>
      </trkpt>
      <trkpt lat="46.86545" lon="-1.95067">
        <ele>3</ele>
        <time>2018-04-21T03:45:58Z</time>
      </trkpt>
      <trkpt lat="46.86534" lon="-1.95078">
        <ele>3</ele>
        <time>2018-04-21T03:46:58Z</time>
      </trkpt>
      <trkpt lat="46.86526" lon="-1.95078">
        <ele>3</ele>
        <time>2018-04-21T03:47:58Z</time>
      </trkpt>
      <trkpt lat="46.86521" lon="-1.95072">
        <ele>3</ele>
        <time>2018-04-21T03:48:58Z</time>
      </trkpt>
      <trkpt lat="46.86509" lon="-1.95074">
        <ele>3</ele>
        <time>2018-04-21T03:49:58Z</time>
      </trkpt>
      <trkpt lat="46.86489" lon="-1.95083">
        <ele>3</ele>
        <time>2018-04-21T03:50:58Z</time>
      </trkpt>
      <trkpt lat="46.86386" lon="-1.95136">
        <ele>2</ele>
        <time>2018-04-21T03:51:58Z</time>
      </trkpt>
      <trkpt lat="46.86352" lon="-1.95146">
        <ele>3</ele>
        <time>2018-04-21T03:52:58Z</time>
      </trkpt>
      <trkpt lat="46.86184" lon="-1.95169">
        <ele>1</ele>
        <time>2018-04-21T03:53:58Z</time>
      </trkpt>
      <trkpt lat="46.86151" lon="-1.95171">
        <ele>1</ele>
        <time>2018-04-21T03:54:58Z</time>
      </trkpt>
      <trkpt lat="46.86094" lon="-1.95163">
        <ele>3</ele>
        <time>2018-04-21T03:55:58Z</time>
      </trkpt>
      <trkpt lat="46.86059" lon="-1.95167">
        <ele>4</ele>
        <time>2018-04-21T03:56:58Z</time>
      </trkpt>
      <trkpt lat="46.86054" lon="-1.95172">
        <ele>4</ele>
        <time>2018-04-21T03:57:58Z</time>
      </trkpt>
      <trkpt lat="46.86044" lon="-1.95189">
        <ele>5</ele>
        <time>2018-04-21T03:58:58Z</time>
      </trkpt>
      <trkpt lat="46.86042" lon="-1.952">
        <ele>5</ele>
        <time>2018-04-21T03:59:58Z</time>
      </trkpt>
      <trkpt lat="46.8604" lon="-1.95292">
        <ele>5</ele>
        <time>2018-04-21T04:00:58Z</time>
      </trkpt>
      <trkpt lat="46.86043" lon="-1.95428">
        <ele>4</ele>
        <time>2018-04-21T04:01:58Z</time>
      </trkpt>
      <trkpt lat="46.86047" lon="-1.95517">
        <ele>4</ele>
        <time>2018-04-21T04:02:58Z</time>
      </trkpt>
      <trkpt lat="46.8606" lon="-1.95638">
        <ele>4</ele>
        <time>2018-04-21T04:03:58Z</time>
      </trkpt>
      <trkpt lat="46.8606" lon="-1.95656">
        <ele>4</ele>
        <time>2018-04-21T04:04:58Z</time>
      </trkpt>
      <trkpt lat="46.86056" lon="-1.95688">
        <ele>4</ele>
        <time>2018-04-21T04:05:58Z</time>
      </trkpt>
      <trkpt lat="46.86043" lon="-1.95712">
        <ele>4</ele>
        <time>2018-04-21T04:06:58Z</time>
      </trkpt>
      <trkpt lat="46.8601" lon="-1.95754">
        <ele>4</ele>
        <time>2018-04-21T04:07:58Z</time>
      </trkpt>
      <trkpt lat="46.85994" lon="-1.95782">
        <ele>4</ele>
        <time>2018-04-21T04:08:58Z</time>
      </trkpt>
      <trkpt lat="46.8597" lon="-1.95832">
        <ele>4</ele>
        <time>2018-04-21T04:09:58Z</time>
      </trkpt>
      <trkpt lat="46.85964" lon="-1.95849">
        <ele>4</ele>
        <time>2018-04-21T04:10:58Z</time>
      </trkpt>
      <trkpt lat="46.85958" lon="-1.95859">
        <ele>4</ele>
        <time>2018-04-21T04:11:58Z</time>
      </trkpt>
      <trkpt lat="46.85942" lon="-1.95874">
        <ele>4</ele>
        <time>2018-04-21T04:12:58Z</time>
      </trkpt>
      <trkpt lat="46.85936" lon="-1.95886">
        <ele>4</ele>
        <time>2018-04-21T04:13:58Z</time>
      </trkpt>
      <trkpt lat="46.85835" lon="-1.9603">
        <ele>2</ele>
        <time>2018-04-21T04:14:58Z</time>
      </trkpt>
      <trkpt lat="46.85759" lon="-1.96182">
        <ele>1</ele>
        <time>2018-04-21T04:15:58Z</time>
      </trkpt>
      <trkpt lat="46.85743" lon="-1.96219">
        <ele>1</ele>
        <time>2018-04-21T04:16:58Z</time>
      </trkpt>
      <trkpt lat="46.85721" lon="-1.96281">
        <ele>1.9</ele>
        <time>2018-04-21T04:17:58Z</time>
      </trkpt>
      <trkpt lat="46.85712" lon="-1.96293">
        <ele>1.7</ele>
        <time>2018-04-21T04:18:58Z</time>
      </trkpt>
      <trkpt lat="46.85678" lon="-1.96322">
        <ele>2</ele>
        <time>2018-04-21T04:19:58Z</time>
      </trkpt>
      <trkpt lat="46.85669" lon="-1.96332">
        <ele>2</ele>
        <time>2018-04-21T04:20:58Z</time>
      </trkpt>
      <trkpt lat="46.85645" lon="-1.96365">
        <ele>1.8</ele>
        <time>2018-04-21T04:21:58Z</time>
      </trkpt>
      <trkpt lat="46.85632" lon="-1.96392">
        <ele>1.9</ele>
        <time>2018-04-21T04:22:58Z</time>
      </trkpt>
      <trkpt lat="46.85626" lon="-1.96412">
        <ele>1.6</ele>
        <time>2018-04-21T04:23:58Z</time>
      </trkpt>
      <trkpt lat="46.85624" lon="-1.96429">
        <ele>1.5</ele>
        <time>2018-04-21T04:24:58Z</time>
      </trkpt>
      <trkpt lat="46.85624" lon="-1.96469">
        <ele>1.5</ele>
        <time>2018-04-21T04:25:58Z</time>
      </trkpt>
      <trkpt lat="46.85622" lon="-1.96489">
        <ele>1.8</ele>
        <time>2018-04-21T04:26:58Z</time>
      </trkpt>
      <trkpt lat="46.85615" lon="-1.96508">
        <ele>1.7</ele>
        <time>2018-04-21T04:27:58Z</time>
      </trkpt>
      <trkpt lat="46.85606" lon="-1.96518">
        <ele>1.5</ele>
        <time>2018-04-21T04:28:58Z</time>
      </trkpt>
      <trkpt lat="46.85577" lon="-1.96533">
        <ele>2</ele>
        <time>2018-04-21T04:29:58Z</time>
      </trkpt>
      <trkpt lat="46.85563" lon="-1.96545">
        <ele>2</ele>
        <time>2018-04-21T04:30:58Z</time>
      </trkpt>
      <trkpt lat="46.85553" lon="-1.96558">
        <ele>2</ele>
        <time>2018-04-21T04:31:58Z</time>
      </trkpt>
      <trkpt lat="46.85542" lon="-1.9658">
        <ele>1.6</ele>
        <time>2018-04-21T04:32:58Z</time>
      </trkpt>
      <trkpt lat="46.85505" lon="-1.9669">
        <ele>2</ele>
        <time>2018-04-21T04:33:58Z</time>
      </trkpt>
      <trkpt lat="46.85498" lon="-1.96712">
        <ele>1</ele>
        <time>2018-04-21T04:34:58Z</time>
      </trkpt>
      <trkpt lat="46.85495" lon="-1.96733">
        <ele>1</ele>
        <time>2018-04-21T04:35:58Z</time>
      </trkpt>
      <trkpt lat="46.85496" lon="-1.9676">
        <ele>1</ele>
        <time>2018-04-21T04:36:58Z</time>
      </trkpt>
      <trkpt lat="46.85499" lon="-1.96787">
        <ele>1</ele>
        <time>2018-04-21T04:37:58Z</time>
      </trkpt>
      <trkpt lat="46.85505" lon="-1.9681">
        <ele>2</ele>
        <time>2018-04-21T04:38:58Z</time>
      </trkpt>
      <trkpt lat="46.85519" lon="-1.9685">
        <ele>2</ele>
        <time>2018-04-21T04:39:58Z</time>
      </trkpt>
      <trkpt lat="46.85525" lon="-1.96876">
        <ele>1</ele>
        <time>2018-04-21T04:40:58Z</time>
      </trkpt>
      <trkpt lat="46.85539" lon="-1.96997">
        <ele>1</ele>
        <time>2018-04-21T04:41:58Z</time>
      </trkpt>
      <trkpt lat="46.85539" lon="-1.97022">
        <ele>1</ele>
        <time>2018-04-21T04:42:58Z</time>
      </trkpt>
      <trkpt lat="46.85539" lon="-1.97022">
        <ele>1</ele>
        <time>2018-04-21T04:43:58Z</time>
      </trkpt>
      <trkpt lat="46.85538" lon="-1.9704">
        <ele>1</ele>
        <time>2018-04-21T04:44:58Z</time>
      </trkpt>
      <trkpt lat="46.85481" lon="-1.97205">
        <ele>3</ele>
        <time>2018-04-21T04:45:58Z</time>
      </trkpt>
      <trkpt lat="46.85444" lon="-1.97329">
        <ele>1</ele>
        <time>2018-04-21T04:46:58Z</time>
      </trkpt>
      <trkpt lat="46.85431" lon="-1.97361">
        <ele>1</ele>
        <time>2018-04-21T04:47:58Z</time>
      </trkpt>
      <trkpt lat="46.85416" lon="-1.97386">
        <ele>1</ele>
        <time>2018-04-21T04:48:58Z</time>
      </trkpt>
      <trkpt lat="46.85391" lon="-1.97411">
        <ele>1</ele>
        <time>2018-04-21T04:49:58Z</time>
      </trkpt>
      <trkpt lat="46.85377" lon="-1.97421">
        <ele>1</ele>
        <time>2018-04-21T04:50:58Z</time>
      </trkpt>
      <trkpt lat="46.85294" lon="-1.9745">
        <ele>1</ele>
        <time>2018-04-21T04:51:58Z</time>
      </trkpt>
      <trkpt lat="46.85282" lon="-1.97457">
        <ele>1</ele>
        <time>2018-04-21T04:52:58Z</time>
      </trkpt>
      <trkpt lat="46.8527" lon="-1.97471">
        <ele>1</ele>
        <time>2018-04-21T04:53:58Z</time>
      </trkpt>
      <trkpt lat="46.85224" lon="-1.9754">
        <ele>1</ele>
        <time>2018-04-21T04:54:58Z</time>
      </trkpt>
      <trkpt lat="46.85207" lon="-1.97558">
        <ele>1</ele>
        <time>2018-04-21T04:55:58Z</time>
      </trkpt>
      <trkpt lat="46.84978" lon="-1.97748">
        <ele>1</ele>
        <time>2018-04-21T04:56:58Z</time>
      </trkpt>
      <trkpt lat="46.84948" lon="-1.97777">
        <ele>2</ele>
        <time>2018-04-21T04:57:58Z</time>
      </trkpt>
      <trkpt lat="46.84835" lon="-1.97938">
        <ele>2</ele>
        <time>2018-04-21T04:58:58Z</time>
      </trkpt>
      <trkpt lat="46.84776" lon="-1.9803">
        <ele>1.9</ele>
        <time>2018-04-21T04:59:58Z</time>
      </trkpt>
      <trkpt lat="46.84745" lon="-1.98073">
        <ele>1.7</ele>
        <time>2018-04-21T05:00:58Z</time>
      </trkpt>
      <trkpt lat="46.84719" lon="-1.98099">
        <ele>2</ele>
        <time>2018-04-21T05:01:58Z</time>
      </trkpt>
      <trkpt lat="46.84682" lon="-1.98123">
        <ele>1.8</ele>
        <time>2018-04-21T05:02:58Z</time>
      </trkpt>
      <trkpt lat="46.84674" lon="-1.98133">
        <ele>1.8</ele>
        <time>2018-04-21T05:03:58Z</time>
      </trkpt>
      <trkpt lat="46.84665" lon="-1.98148">
        <ele>1.7</ele>
        <time>2018-04-21T05:04:58Z</time>
      </trkpt>
      <trkpt lat="46.84656" lon="-1.98169">
        <ele>1.4</ele>
        <time>2018-04-21T05:05:58Z</time>
      </trkpt>
      <trkpt lat="46.84641" lon="-1.98209">
        <ele>1</ele>
        <time>2018-04-21T05:06:58Z</time>
      </trkpt>
      <trkpt lat="46.84635" lon="-1.98221">
        <ele>1</ele>
        <time>2018-04-21T05:07:58Z</time>
      </trkpt>
      <trkpt lat="46.8461" lon="-1.98251">
        <ele>1</ele>
        <time>2018-04-21T05:08:58Z</time>
      </trkpt>
      <trkpt lat="46.84598" lon="-1.98268">
        <ele>1</ele>
        <time>2018-04-21T05:09:58Z</time>
      </trkpt>
      <trkpt lat="46.84564" lon="-1.98339">
        <ele>2</ele>
        <time>2018-04-21T05:10:58Z</time>
      </trkpt>
      <trkpt lat="46.84556" lon="-1.98365">
        <ele>1</ele>
        <time>2018-04-21T05:11:58Z</time>
      </trkpt>
      <trkpt lat="46.84552" lon="-1.98391">
        <ele>1</ele>
        <time>2018-04-21T05:12:58Z</time>
      </trkpt>
      <trkpt lat="46.84551" lon="-1.98451">
        <ele>1</ele>
        <time>2018-04-21T05:13:58Z</time>
      </trkpt>
      <trkpt lat="46.84549" lon="-1.98474">
        <ele>1</ele>
        <time>2018-04-21T05:14:58Z</time>
      </trkpt>
      <trkpt lat="46.84545" lon="-1.98489">
        <ele>1</ele>
        <time>2018-04-21T05:15:58Z</time>
      </trkpt>
      <trkpt lat="46.8451" lon="-1.98572">
        <ele>2</ele>
        <time>2018-04-21T05:16:58Z</time>
      </trkpt>
      <trkpt lat="46.84458" lon="-1.98685">
        <ele>1</ele>
        <time>2018-04-21T05:17:58Z</time>
      </trkpt>
      <trkpt lat="46.84445" lon="-1.98704">
        <ele>1</ele>
        <time>2018-04-21T05:18:58Z</time>
      </trkpt>
      <trkpt lat="46.84426" lon="-1.98723">
        <ele>1</ele>
        <time>2018-04-21T05:19:58Z</time>
      </trkpt>
      <trkpt lat="46.84335" lon="-1.98771">
        <ele>1</ele>
        <time>2018-04-21T05:20:58Z</time>
      </trkpt>
      <trkpt lat="46.84308" lon="-1.9878">
        <ele>1</ele>
        <time>2018-04-21T05:21:58Z</time>
      </trkpt>
      <trkpt lat="46.84146" lon="-1.98816">
        <ele>1</ele>
        <time>2018-04-21T05:22:58Z</time>
      </trkpt>
      <trkpt lat="46.84072" lon="-1.98842">
        <ele>1</ele>
        <time>2018-04-21T05:23:58Z</time>
      </trkpt>
      <trkpt lat="46.84002" lon="-1.98871">
        <ele>1</ele>
        <time>2018-04-21T05:24:58Z</time>
      </trkpt>
      <trkpt lat="46.83955" lon="-1.98897">
        <ele>1.6</ele>
        <time>2018-04-21T05:25:58Z</time>
      </trkpt>
      <trkpt lat="46.83716" lon="-1.99002">
        <ele>2</ele>
        <time>2018-04-21T05:26:58Z</time>
      </trkpt>
      <trkpt lat="46.83553" lon="-1.99083">
        <ele>2</ele>
        <time>2018-04-21T05:27:58Z</time>
      </trkpt>
      <trkpt lat="46.83469" lon="-1.99128">
        <ele>1</ele>
        <time>2018-04-21T05:28:58Z</time>
      </trkpt>
      <trkpt lat="46.83351" lon="-1.99204">
        <ele>1</ele>
        <time>2018-04-21T05:29:58Z</time>
      </trkpt>
      <trkpt lat="46.8332" lon="-1.99218">
        <ele>1</ele>
        <time>2018-04-21T05:30:58Z</time>
      </trkpt>
      <trkpt lat="46.83195" lon="-1.99257">
        <ele>1</ele>
        <time>2018-04-21T05:31:58Z</time>
      </trkpt>
      <trkpt lat="46.83134" lon="-1.9927">
        <ele>1</ele>
        <time>2018-04-21T05:32:58Z</time>
      </trkpt>
      <trkpt lat="46.83104" lon="-1.9928">
        <ele>1</ele>
        <time>2018-04-21T05:33:58Z</time>
      </trkpt>
      <trkpt lat="46.83079" lon="-1.99295">
        <ele>1</ele>
        <time>2018-04-21T05:34:58Z</time>
      </trkpt>
      <trkpt lat="46.83049" lon="-1.99324">
        <ele>1</ele>
        <time>2018-04-21T05:35:58Z</time>
      </trkpt>
      <trkpt lat="46.82977" lon="-1.99402">
        <ele>1</ele>
        <time>2018-04-21T05:36:58Z</time>
      </trkpt>
      <trkpt lat="46.82925" lon="-1.99455">
        <ele>1</ele>
        <time>2018-04-21T05:37:58Z</time>
      </trkpt>
      <trkpt lat="46.82908" lon="-1.99464">
        <ele>2</ele>
        <time>2018-04-21T05:38:58Z</time>
      </trkpt>
      <trkpt lat="46.82889" lon="-1.99468">
        <ele>2</ele>
        <time>2018-04-21T05:39:58Z</time>
      </trkpt>
      <trkpt lat="46.82823" lon="-1.99461">
        <ele>2.2</ele>
        <time>2018-04-21T05:40:58Z</time>
      </trkpt>
      <trkpt lat="46.82785" lon="-1.99468">
        <ele>2.2</ele>
        <time>2018-04-21T05:41:58Z</time>
      </trkpt>
      <trkpt lat="46.82638" lon="-1.99501">
        <ele>2</ele>
        <time>2018-04-21T05:42:58Z</time>
      </trkpt>
      <trkpt lat="46.82618" lon="-1.99503">
        <ele>2</ele>
        <time>2018-04-21T05:43:58Z</time>
      </trkpt>
      <trkpt lat="46.826" lon="-1.99502">
        <ele>2</ele>
        <time>2018-04-21T05:44:58Z</time>
      </trkpt>
      <trkpt lat="46.82523" lon="-1.99482">
        <ele>2</ele>
        <time>2018-04-21T05:45:58Z</time>
      </trkpt>
      <trkpt lat="46.82511" lon="-1.99479">
        <ele>2</ele>
        <time>2018-04-21T05:46:58Z</time>
      </trkpt>
      <trkpt lat="46.82501" lon="-1.9948">
        <ele>2</ele>
        <time>2018-04-21T05:47:58Z</time>
      </trkpt>
      <trkpt lat="46.82487" lon="-1.99484">
        <ele>1</ele>
        <time>2018-04-21T05:48:58Z</time>
      </trkpt>
      <trkpt lat="46.82481" lon="-1.99489">
        <ele>2</ele>
        <time>2018-04-21T05:49:58Z</time>
      </trkpt>
      <trkpt lat="46.82464" lon="-1.99514">
        <ele>1</ele>
        <time>2018-04-21T05:50:58Z</time>
      </trkpt>
      <trkpt lat="46.82451" lon="-1.99539">
        <ele>1</ele>
        <time>2018-04-21T05:51:58Z</time>
      </trkpt>
      <trkpt lat="46.82444" lon="-1.99563">
        <ele>1</ele>
        <time>2018-04-21T05:52:58Z</time>
      </trkpt>
      <trkpt lat="46.82446" lon="-1.9957">
        <ele>1</ele>
        <time>2018-04-21T05:53:58Z</time>
      </trkpt>
      <trkpt lat="46.82447" lon="-1.99577">
        <ele>2</ele>
        <time>2018-04-21T05:54:58Z</time>
      </trkpt>
      <trkpt lat="46.82445" lon="-1.99584">
        <ele>2</ele>
        <time>2018-04-21T05:55:58Z</time>
      </trkpt>
      <trkpt lat="46.82442" lon="-1.99589">
        <ele>2</ele>
        <time>2018-04-21T05:56:58Z</time>
      </trkpt>
      <trkpt lat="46.82437" lon="-1.99594">
        <ele>2</ele>
        <time>2018-04-21T05:57:58Z</time>
      </trkpt>
      <trkpt lat="46.82433" lon="-1.99594">
        <ele>2</ele>
        <time>2018-04-21T05:58:58Z</time>
      </trkpt>
      <trkpt lat="46.82425" lon="-1.99588">
        <ele>2</ele>
        <time>2018-04-21T05:59:58Z</time>
      </trkpt>
      <trkpt lat="46.82421" lon="-1.99576">
        <ele>2</ele>
        <time>2018-04-21T06:00:58Z</time>
      </trkpt>
      <trkpt lat="46.82417" lon="-1.99573">
        <ele>2</ele>
        <time>2018-04-21T06:01:58Z</time>
      </trkpt>
      <trkpt lat="46.82315" lon="-1.99518">
        <ele>2</ele>
        <time>2018-04-21T06:02:58Z</time>
      </trkpt>
      <trkpt lat="46.82173" lon="-1.99416">
        <ele>1</ele>
        <time>2018-04-21T06:03:58Z</time>
      </trkpt>
      <trkpt lat="46.82173" lon="-1.99416">
        <ele>1</ele>
        <time>2018-04-21T06:04:58Z</time>
      </trkpt>
      <trkpt lat="46.82113" lon="-1.99377">
        <ele>1</ele>
        <time>2018-04-21T06:05:58Z</time>
      </trkpt>
      <trkpt lat="46.82" lon="-1.99339">
        <ele>2</ele>
        <time>2018-04-21T06:06:58Z</time>
      </trkpt>
      <trkpt lat="46.81927" lon="-1.99305">
        <ele>2</ele>
        <time>2018-04-21T06:07:58Z</time>
      </trkpt>
      <trkpt lat="46.8191" lon="-1.99308">
        <ele>2</ele>
        <time>2018-04-21T06:08:58Z</time>
      </trkpt>
      <trkpt lat="46.81904" lon="-1.99311">
        <ele>2</ele>
        <time>2018-04-21T06:09:58Z</time>
      </trkpt>
      <trkpt lat="46.81896" lon="-1.99306">
        <ele>2</ele>
        <time>2018-04-21T06:10:58Z</time>
      </trkpt>
      <trkpt lat="46.81894" lon="-1.993">
        <ele>2</ele>
        <time>2018-04-21T06:11:58Z</time>
      </trkpt>
      <trkpt lat="46.81885" lon="-1.99291">
        <ele>2</ele>
        <time>2018-04-21T06:12:58Z</time>
      </trkpt>
      <trkpt lat="46.81867" lon="-1.99279">
        <ele>2</ele>
        <time>2018-04-21T06:13:58Z</time>
      </trkpt>
      <trkpt lat="46.81714" lon="-1.9924">
        <ele>1</ele>
        <time>2018-04-21T06:14:58Z</time>
      </trkpt>
      <trkpt lat="46.81657" lon="-1.99222">
        <ele>2</ele>
        <time>2018-04-21T06:15:58Z</time>
      </trkpt>
      <trkpt lat="46.81621" lon="-1.99202">
        <ele>2</ele>
        <time>2018-04-21T06:16:58Z</time>
      </trkpt>
      <trkpt lat="46.81591" lon="-1.99177">
        <ele>1</ele>
        <time>2018-04-21T06:17:58Z</time>
      </trkpt>
      <trkpt lat="46.81396" lon="-1.98984">
        <ele>2</ele>
        <time>2018-04-21T06:18:58Z</time>
      </trkpt>
      <trkpt lat="46.81396" lon="-1.98984">
        <ele>2</ele>
        <time>2018-04-21T06:19:58Z</time>
      </trkpt>
      <trkpt lat="46.81242" lon="-1.98831">
        <ele>1.7</ele>
        <time>2018-04-21T06:20:58Z</time>
      </trkpt>
      <trkpt lat="46.81213" lon="-1.98818">
        <ele>1.3</ele>
        <time>2018-04-21T06:21:58Z</time>
      </trkpt>
      <trkpt lat="46.81194" lon="-1.98817">
        <ele>2</ele>
        <time>2018-04-21T06:22:58Z</time>
      </trkpt>
      <trkpt lat="46.81183" lon="-1.98825">
        <ele>2</ele>
        <time>2018-04-21T06:23:58Z</time>
      </trkpt>
      <trkpt lat="46.81162" lon="-1.98849">
        <ele>1</ele>
        <time>2018-04-21T06:24:58Z</time>
      </trkpt>
      <trkpt lat="46.81146" lon="-1.98879">
        <ele>1</ele>
        <time>2018-04-21T06:25:58Z</time>
      </trkpt>
      <trkpt lat="46.81118" lon="-1.98914">
        <ele>1</ele>
        <time>2018-04-21T06:26:58Z</time>
      </trkpt>
      <trkpt lat="46.81101" lon="-1.98919">
        <ele>1</ele>
        <time>2018-04-21T06:27:58Z</time>
      </trkpt>
      <trkpt lat="46.81082" lon="-1.98919">
        <ele>1</ele>
        <time>2018-04-21T06:28:58Z</time>
      </trkpt>
      <trkpt lat="46.81054" lon="-1.9891">
        <ele>1</ele>
        <time>2018-04-21T06:29:58Z</time>
      </trkpt>
      <trkpt lat="46.80837" lon="-1.98733">
        <ele>2</ele>
        <time>2018-04-21T06:30:58Z</time>
      </trkpt>
      <trkpt lat="46.808" lon="-1.98697">
        <ele>1.9</ele>
        <time>2018-04-21T06:31:58Z</time>
      </trkpt>
      <trkpt lat="46.80524" lon="-1.98402">
        <ele>2.1</ele>
        <time>2018-04-21T06:32:58Z</time>
      </trkpt>
      <trkpt lat="46.80483" lon="-1.98369">
        <ele>1</ele>
        <time>2018-04-21T06:33:58Z</time>
      </trkpt>
      <trkpt lat="46.80469" lon="-1.98373">
        <ele>1</ele>
        <time>2018-04-21T06:34:58Z</time>
      </trkpt>
      <trkpt lat="46.80458" lon="-1.98367">
        <ele>1</ele>
        <time>2018-04-21T06:35:58Z</time>
      </trkpt>
      <trkpt lat="46.80452" lon="-1.98355">
        <ele>1</ele>
        <time>2018-04-21T06:36:58Z</time>
      </trkpt>
      <trkpt lat="46.80453" lon="-1.98336">
        <ele>1</ele>
        <time>2018-04-21T06:37:58Z</time>
      </trkpt>
      <trkpt lat="46.80434" lon="-1.98303">
        <ele>1</ele>
        <time>2018-04-21T06:38:58Z</time>
      </trkpt>
      <trkpt lat="46.80372" lon="-1.98228">
        <ele>2</ele>
        <time>2018-04-21T06:39:58Z</time>
      </trkpt>
      <trkpt lat="46.80281" lon="-1.98126">
        <ele>2</ele>
        <time>2018-04-21T06:40:58Z</time>
      </trkpt>
      <trkpt lat="46.80254" lon="-1.98102">
        <ele>2</ele>
        <time>2018-04-21T06:41:58Z</time>
      </trkpt>
      <trkpt lat="46.80223" lon="-1.98085">
        <ele>2</ele>
        <time>2018-04-21T06:42:58Z</time>
      </trkpt>
      <trkpt lat="46.80112" lon="-1.98041">
        <ele>2</ele>
        <time>2018-04-21T06:43:58Z</time>
      </trkpt>
      <trkpt lat="46.80042" lon="-1.98009">
        <ele>2.3</ele>
        <time>2018-04-21T06:44:58Z</time>
      </trkpt>
      <trkpt lat="46.8001" lon="-1.97983">
        <ele>2.1</ele>
        <time>2018-04-21T06:45:58Z</time>
      </trkpt>
      <trkpt lat="46.79949" lon="-1.97912">
        <ele>2</ele>
        <time>2018-04-21T06:46:58Z</time>
      </trkpt>
      <trkpt lat="46.79917" lon="-1.9788">
        <ele>2</ele>
        <time>2018-04-21T06:47:58Z</time>
      </trkpt>
      <trkpt lat="46.79877" lon="-1.97852">
        <ele>2</ele>
        <time>2018-04-21T06:48:58Z</time>
      </trkpt>
      <trkpt lat="46.79838" lon="-1.97831">
        <ele>2</ele>
        <time>2018-04-21T06:49:58Z</time>
      </trkpt>
      <trkpt lat="46.798" lon="-1.9782">
        <ele>2</ele>
        <time>2018-04-21T06:50:58Z</time>
      </trkpt>
      <trkpt lat="46.79763" lon="-1.97823">
        <ele>1</ele>
        <time>2018-04-21T06:51:58Z</time>
      </trkpt>
      <trkpt lat="46.79716" lon="-1.97838">
        <ele>1</ele>
        <time>2018-04-21T06:52:58Z</time>
      </trkpt>
      <trkpt lat="46.79596" lon="-1.97889">
        <ele>2</ele>
        <time>2018-04-21T06:53:58Z</time>
      </trkpt>
      <trkpt lat="46.7955" lon="-1.97899">
        <ele>1.9</ele>
        <time>2018-04-21T06:54:58Z</time>
      </trkpt>
      <trkpt lat="46.79506" lon="-1.97906">
        <ele>1.9</ele>
        <time>2018-04-21T06:55:58Z</time>
      </trkpt>
      <trkpt lat="46.79341" lon="-1.97926">
        <ele>1</ele>
        <time>2018-04-21T06:56:58Z</time>
      </trkpt>
      <trkpt lat="46.79308" lon="-1.97928">
        <ele>1</ele>
        <time>2018-04-21T06:57:58Z</time>
      </trkpt>
      <trkpt lat="46.79275" lon="-1.97915">
        <ele>1</ele>
        <time>2018-04-21T06:58:58Z</time>
      </trkpt>
      <trkpt lat="46.79249" lon="-1.97883">
        <ele>1</ele>
        <time>2018-04-21T06:59:58Z</time>
      </trkpt>
      <trkpt lat="46.79208" lon="-1.97803">
        <ele>1</ele>
        <time>2018-04-21T07:00:58Z</time>
      </trkpt>
      <trkpt lat="46.79162" lon="-1.97707">
        <ele>2</ele>
        <time>2018-04-21T07:01:58Z</time>
      </trkpt>
      <trkpt lat="46.79126" lon="-1.97642">
        <ele>1.9</ele>
        <time>2018-04-21T07:02:58Z</time>
      </trkpt>
      <trkpt lat="46.79079" lon="-1.97562">
        <ele>1</ele>
        <time>2018-04-21T07:03:58Z</time>
      </trkpt>
      <trkpt lat="46.7905" lon="-1.97507">
        <ele>1</ele>
        <time>2018-04-21T07:04:58Z</time>
      </trkpt>
      <trkpt lat="46.79024" lon="-1.97468">
        <ele>1</ele>
        <time>2018-04-21T07:05:58Z</time>
      </trkpt>
      <trkpt lat="46.78993" lon="-1.97435">
        <ele>2</ele>
        <time>2018-04-21T07:06:58Z</time>
      </trkpt>
      <trkpt lat="46.78956" lon="-1.97409">
        <ele>2</ele>
        <time>2018-04-21T07:07:58Z</time>
      </trkpt>
      <trkpt lat="46.78861" lon="-1.9737">
        <ele>4</ele>
        <time>2018-04-21T07:08:58Z</time>
      </trkpt>
      <trkpt lat="46.7853" lon="-1.97246">
        <ele>5</ele>
        <time>2018-04-21T07:09:58Z</time>
      </trkpt>
      <trkpt lat="46.78486" lon="-1.97229">
        <ele>4</ele>
        <time>2018-04-21T07:10:58Z</time>
      </trkpt>
      <trkpt lat="46.78429" lon="-1.97203">
        <ele>5</ele>
        <time>2018-04-21T07:11:58Z</time>
      </trkpt>
      <trkpt lat="46.78399" lon="-1.97188">
        <ele>5</ele>
        <time>2018-04-21T07:12:58Z</time>
      </trkpt>
      <trkpt lat="46.78223" lon="-1.97089">
        <ele>3</ele>
        <time>2018-04-21T07:13:58Z</time>
      </trkpt>
      <trkpt lat="46.77947" lon="-1.96937">
        <ele>3</ele>
        <time>2018-04-21T07:14:58Z</time>
      </trkpt>
      <trkpt lat="46.77912" lon="-1.9692">
        <ele>3</ele>
        <time>2018-04-21T07:15:58Z</time>
      </trkpt>
      <trkpt lat="46.7779" lon="-1.96871">
        <ele>4</ele>
        <time>2018-04-21T07:16:58Z</time>
      </trkpt>
      <trkpt lat="46.77751" lon="-1.9685">
        <ele>4</ele>
        <time>2018-04-21T07:17:58Z</time>
      </trkpt>
      <trkpt lat="46.77713" lon="-1.96822">
        <ele>3</ele>
        <time>2018-04-21T07:18:58Z</time>
      </trkpt>
      <trkpt lat="46.7766" lon="-1.96774">
        <ele>3</ele>
        <time>2018-04-21T07:19:58Z</time>
      </trkpt>
      <trkpt lat="46.77479" lon="-1.966">
        <ele>6</ele>
        <time>2018-04-21T07:20:58Z</time>
      </trkpt>
      <trkpt lat="46.77305" lon="-1.96427">
        <ele>5</ele>
        <time>2018-04-21T07:21:58Z</time>
      </trkpt>
      <trkpt lat="46.77223" lon="-1.96351">
        <ele>5</ele>
        <time>2018-04-21T07:22:58Z</time>
      </trkpt>
      <trkpt lat="46.77192" lon="-1.96329">
        <ele>6</ele>
        <time>2018-04-21T07:23:58Z</time>
      </trkpt>
      <trkpt lat="46.77176" lon="-1.96323">
        <ele>6</ele>
        <time>2018-04-21T07:24:58Z</time>
      </trkpt>
      <trkpt lat="46.77174" lon="-1.9633">
        <ele>7</ele>
        <time>2018-04-21T07:25:58Z</time>
      </trkpt>
      <trkpt lat="46.77165" lon="-1.96334">
        <ele>7</ele>
        <time>2018-04-21T07:26:58Z</time>
      </trkpt>
      <trkpt lat="46.77156" lon="-1.96328">
        <ele>7</ele>
        <time>2018-04-21T07:27:58Z</time>
      </trkpt>
      <trkpt lat="46.77153" lon="-1.96315">
        <ele>6</ele>
        <time>2018-04-21T07:28:58Z</time>
      </trkpt>
      <trkpt lat="46.7714" lon="-1.96312">
        <ele>6</ele>
        <time>2018-04-21T07:29:58Z</time>
      </trkpt>
      <trkpt lat="46.77129" lon="-1.96306">
        <ele>6</ele>
        <time>2018-04-21T07:30:58Z</time>
      </trkpt>
      <trkpt lat="46.77099" lon="-1.96301">
        <ele>6</ele>
        <time>2018-04-21T07:31:58Z</time>
      </trkpt>
      <trkpt lat="46.76892" lon="-1.96275">
        <ele>4</ele>
        <time>2018-04-21T07:32:58Z</time>
      </trkpt>
      <trkpt lat="46.76809" lon="-1.96258">
        <ele>3</ele>
        <time>2018-04-21T07:33:58Z</time>
      </trkpt>
      <trkpt lat="46.76682" lon="-1.96215">
        <ele>3</ele>
        <time>2018-04-21T07:34:58Z</time>
      </trkpt>
      <trkpt lat="46.76378" lon="-1.96105">
        <ele>2</ele>
        <time>2018-04-21T07:35:58Z</time>
      </trkpt>
      <trkpt lat="46.76318" lon="-1.96079">
        <ele>3</ele>
        <time>2018-04-21T07:36:58Z</time>
      </trkpt>
      <trkpt lat="46.76219" lon="-1.96014">
        <ele>4</ele>
        <time>2018-04-21T07:37:58Z</time>
      </trkpt>
      <trkpt lat="46.76148" lon="-1.95979">
        <ele>3</ele>
        <time>2018-04-21T07:38:58Z</time>
      </trkpt>
      <trkpt lat="46.76105" lon="-1.95961">
        <ele>4</ele>
        <time>2018-04-21T07:39:58Z</time>
      </trkpt>
      <trkpt lat="46.7603" lon="-1.95935">
        <ele>5</ele>
        <time>2018-04-21T07:40:58Z</time>
      </trkpt>
      <trkpt lat="46.75989" lon="-1.95928">
        <ele>5</ele>
        <time>2018-04-21T07:41:58Z</time>
      </trkpt>
      <trkpt lat="46.75744" lon="-1.95914">
        <ele>2</ele>
        <time>2018-04-21T07:42:58Z</time>
      </trkpt>
      <trkpt lat="46.75698" lon="-1.95907">
        <ele>3</ele>
        <time>2018-04-21T07:43:58Z</time>
      </trkpt>
      <trkpt lat="46.75532" lon="-1.95861">
        <ele>2</ele>
        <time>2018-04-21T07:44:58Z</time>
      </trkpt>
      <trkpt lat="46.75433" lon="-1.95807">
        <ele>2</ele>
        <time>2018-04-21T07:45:58Z</time>
      </trkpt>
      <trkpt lat="46.75263" lon="-1.9572">
        <ele>1</ele>
        <time>2018-04-21T07:46:58Z</time>
      </trkpt>
      <trkpt lat="46.75225" lon="-1.95712">
        <ele>1</ele>
        <time>2018-04-21T07:47:58Z</time>
      </trkpt>
      <trkpt lat="46.75116" lon="-1.95707">
        <ele>1</ele>
        <time>2018-04-21T07:48:58Z</time>
      </trkpt>
      <trkpt lat="46.75087" lon="-1.95702">
        <ele>1</ele>
        <time>2018-04-21T07:49:58Z</time>
      </trkpt>
      <trkpt lat="46.7506" lon="-1.95692">
        <ele>1</ele>
        <time>2018-04-21T07:50:58Z</time>
      </trkpt>
      <trkpt lat="46.75006" lon="-1.95668">
        <ele>1</ele>
        <time>2018-04-21T07:51:58Z</time>
      </trkpt>
      <trkpt lat="46.74835" lon="-1.95585">
        <ele>2</ele>
        <time>2018-04-21T07:52:58Z</time>
      </trkpt>
      <trkpt lat="46.74806" lon="-1.95576">
        <ele>2</ele>
        <time>2018-04-21T07:53:58Z</time>
      </trkpt>
      <trkpt lat="46.7477" lon="-1.95572">
        <ele>1</ele>
        <time>2018-04-21T07:54:58Z</time>
      </trkpt>
      <trkpt lat="46.74685" lon="-1.95579">
        <ele>2</ele>
        <time>2018-04-21T07:55:58Z</time>
      </trkpt>
      <trkpt lat="46.74638" lon="-1.95578">
        <ele>2</ele>
        <time>2018-04-21T07:56:58Z</time>
      </trkpt>
      <trkpt lat="46.74468" lon="-1.9554">
        <ele>1</ele>
        <time>2018-04-21T07:57:58Z</time>
      </trkpt>
      <trkpt lat="46.74462" lon="-1.9555">
        <ele>2</ele>
        <time>2018-04-21T07:58:58Z</time>
      </trkpt>
      <trkpt lat="46.74456" lon="-1.95552">
        <ele>1</ele>
        <time>2018-04-21T07:59:58Z</time>
      </trkpt>
      <trkpt lat="46.74449" lon="-1.95549">
        <ele>1</ele>
        <time>2018-04-21T08:00:58Z</time>
      </trkpt>
      <trkpt lat="46.74446" lon="-1.95546">
        <ele>1</ele>
        <time>2018-04-21T08:01:58Z</time>
      </trkpt>
      <trkpt lat="46.7444" lon="-1.95526">
        <ele>2</ele>
        <time>2018-04-21T08:02:58Z</time>
      </trkpt>
      <trkpt lat="46.74432" lon="-1.95513">
        <ele>2</ele>
        <time>2018-04-21T08:03:58Z</time>
      </trkpt>
      <trkpt lat="46.74397" lon="-1.95503">
        <ele>2</ele>
        <time>2018-04-21T08:04:58Z</time>
      </trkpt>
      <trkpt lat="46.74367" lon="-1.95497">
        <ele>1</ele>
        <time>2018-04-21T08:05:58Z</time>
      </trkpt>
      <trkpt lat="46.74367" lon="-1.95497">
        <ele>1</ele>
        <time>2018-04-21T08:06:58Z</time>
      </trkpt>
      <trkpt lat="46.74285" lon="-1.95482">
        <ele>1</ele>
        <time>2018-04-21T08:07:58Z</time>
      </trkpt>
      <trkpt lat="46.74184" lon="-1.95449">
        <ele>2</ele>
        <time>2018-04-21T08:08:58Z</time>
      </trkpt>
      <trkpt lat="46.74103" lon="-1.95397">
        <ele>4</ele>
        <time>2018-04-21T08:09:58Z</time>
      </trkpt>
      <trkpt lat="46.73989" lon="-1.95314">
        <ele>5</ele>
        <time>2018-04-21T08:10:58Z</time>
      </trkpt>
      <trkpt lat="46.73872" lon="-1.95264">
        <ele>3</ele>
        <time>2018-04-21T08:11:58Z</time>
      </trkpt>
      <trkpt lat="46.73778" lon="-1.95229">
        <ele>4</ele>
        <time>2018-04-21T08:12:58Z</time>
      </trkpt>
      <trkpt lat="46.73549" lon="-1.95091">
        <ele>3</ele>
        <time>2018-04-21T08:13:58Z</time>
      </trkpt>
      <trkpt lat="46.7351" lon="-1.95075">
        <ele>4</ele>
        <time>2018-04-21T08:14:58Z</time>
      </trkpt>
      <trkpt lat="46.73493" lon="-1.95064">
        <ele>4</ele>
        <time>2018-04-21T08:15:58Z</time>
      </trkpt>
      <trkpt lat="46.73475" lon="-1.95069">
        <ele>4</ele>
        <time>2018-04-21T08:16:58Z</time>
      </trkpt>
      <trkpt lat="46.73429" lon="-1.95059">
        <ele>5</ele>
        <time>2018-04-21T08:17:58Z</time>
      </trkpt>
      <trkpt lat="46.73128" lon="-1.95005">
        <ele>7</ele>
        <time>2018-04-21T08:18:58Z</time>
      </trkpt>
      <trkpt lat="46.73044" lon="-1.94977">
        <ele>7</ele>
        <time>2018-04-21T08:19:58Z</time>
      </trkpt>
      <trkpt lat="46.72938" lon="-1.94938">
        <ele>5</ele>
        <time>2018-04-21T08:20:58Z</time>
      </trkpt>
      <trkpt lat="46.72898" lon="-1.94926">
        <ele>4</ele>
        <time>2018-04-21T08:21:58Z</time>
      </trkpt>
      <trkpt lat="46.72866" lon="-1.94925">
        <ele>4</ele>
        <time>2018-04-21T08:22:58Z</time>
      </trkpt>
      <trkpt lat="46.72855" lon="-1.94939">
        <ele>4</ele>
        <time>2018-04-21T08:23:58Z</time>
      </trkpt>
      <trkpt lat="46.72829" lon="-1.94951">
        <ele>4</ele>
        <time>2018-04-21T08:24:58Z</time>
      </trkpt>
      <trkpt lat="46.72818" lon="-1.94962">
        <ele>4</ele>
        <time>2018-04-21T08:25:58Z</time>
      </trkpt>
      <trkpt lat="46.72811" lon="-1.94975">
        <ele>5</ele>
        <time>2018-04-21T08:26:58Z</time>
      </trkpt>
      <trkpt lat="46.72787" lon="-1.94987">
        <ele>4</ele>
        <time>2018-04-21T08:27:58Z</time>
      </trkpt>
      <trkpt lat="46.7278" lon="-1.94988">
        <ele>4</ele>
        <time>2018-04-21T08:28:58Z</time>
      </trkpt>
      <trkpt lat="46.72775" lon="-1.94982">
        <ele>4</ele>
        <time>2018-04-21T08:29:58Z</time>
      </trkpt>
      <trkpt lat="46.72754" lon="-1.94967">
        <ele>4</ele>
        <time>2018-04-21T08:30:58Z</time>
      </trkpt>
      <trkpt lat="46.72738" lon="-1.94963">
        <ele>4</ele>
        <time>2018-04-21T08:31:58Z</time>
      </trkpt>
      <trkpt lat="46.72727" lon="-1.94965">
        <ele>4</ele>
        <time>2018-04-21T08:32:58Z</time>
      </trkpt>
      <trkpt lat="46.72714" lon="-1.94965">
        <ele>4</ele>
        <time>2018-04-21T08:33:58Z</time>
      </trkpt>
      <trkpt lat="46.72715" lon="-1.94949">
        <ele>4</ele>
        <time>2018-04-21T08:34:58Z</time>
      </trkpt>
      <trkpt lat="46.72645" lon="-1.94956">
        <ele>4</ele>
        <time>2018-04-21T08:35:58Z</time>
      </trkpt>
      <trkpt lat="46.72645" lon="-1.94956">
        <ele>4</ele>
        <time>2018-04-21T08:36:58Z</time>
      </trkpt>
      <trkpt lat="46.72567" lon="-1.94952">
        <ele>5</ele>
        <time>2018-04-21T08:37:58Z</time>
      </trkpt>
      <trkpt lat="46.72516" lon="-1.94936">
        <ele>5</ele>
        <time>2018-04-21T08:38:58Z</time>
      </trkpt>
      <trkpt lat="46.72462" lon="-1.94909">
        <ele>5</ele>
        <time>2018-04-21T08:39:58Z</time>
      </trkpt>
      <trkpt lat="46.72428" lon="-1.94904">
        <ele>6</ele>
        <time>2018-04-21T08:40:58Z</time>
      </trkpt>
      <trkpt lat="46.72386" lon="-1.94903">
        <ele>6</ele>
        <time>2018-04-21T08:41:58Z</time>
      </trkpt>
      <trkpt lat="46.72368" lon="-1.9491">
        <ele>7</ele>
        <time>2018-04-21T08:42:58Z</time>
      </trkpt>
      <trkpt lat="46.72357" lon="-1.94916">
        <ele>7</ele>
        <time>2018-04-21T08:43:58Z</time>
      </trkpt>
      <trkpt lat="46.72351" lon="-1.94924">
        <ele>7</ele>
        <time>2018-04-21T08:44:58Z</time>
      </trkpt>
      <trkpt lat="46.72343" lon="-1.94923">
        <ele>7</ele>
        <time>2018-04-21T08:45:58Z</time>
      </trkpt>
      <trkpt lat="46.72339" lon="-1.9492">
        <ele>7</ele>
        <time>2018-04-21T08:46:58Z</time>
      </trkpt>
      <trkpt lat="46.72332" lon="-1.94905">
        <ele>7</ele>
        <time>2018-04-21T08:47:58Z</time>
      </trkpt>
      <trkpt lat="46.72316" lon="-1.94892">
        <ele>7</ele>
        <time>2018-04-21T08:48:58Z</time>
      </trkpt>
      <trkpt lat="46.72184" lon="-1.94858">
        <ele>9</ele>
        <time>2018-04-21T08:49:58Z</time>
      </trkpt>
      <trkpt lat="46.72141" lon="-1.94854">
        <ele>10</ele>
        <time>2018-04-21T08:50:58Z</time>
      </trkpt>
      <trkpt lat="46.72107" lon="-1.9486">
        <ele>11</ele>
        <time>2018-04-21T08:51:58Z</time>
      </trkpt>
      <trkpt lat="46.72072" lon="-1.94874">
        <ele>12</ele>
        <time>2018-04-21T08:52:58Z</time>
      </trkpt>
      <trkpt lat="46.72059" lon="-1.94885">
        <ele>12</ele>
        <time>2018-04-21T08:53:58Z</time>
      </trkpt>
      <trkpt lat="46.71976" lon="-1.9492">
        <ele>13</ele>
        <time>2018-04-21T08:54:58Z</time>
      </trkpt>
      <trkpt lat="46.71847" lon="-1.94963">
        <ele>14</ele>
        <time>2018-04-21T08:55:58Z</time>
      </trkpt>
      <trkpt lat="46.71694" lon="-1.95042">
        <ele>17</ele>
        <time>2018-04-21T08:56:58Z</time>
      </trkpt>
      <trkpt lat="46.71577" lon="-1.95126">
        <ele>17</ele>
        <time>2018-04-21T08:57:58Z</time>
      </trkpt>
      <trkpt lat="46.7147" lon="-1.9522">
        <ele>17</ele>
        <time>2018-04-21T08:58:58Z</time>
      </trkpt>
      <trkpt lat="46.71437" lon="-1.95259">
        <ele>18</ele>
        <time>2018-04-21T08:59:58Z</time>
      </trkpt>
      <trkpt lat="46.71421" lon="-1.95284">
        <ele>18</ele>
        <time>2018-04-21T09:00:58Z</time>
      </trkpt>
      <trkpt lat="46.71421" lon="-1.95291">
        <ele>17</ele>
        <time>2018-04-21T09:01:58Z</time>
      </trkpt>
      <trkpt lat="46.7142" lon="-1.95295">
        <ele>17</ele>
        <time>2018-04-21T09:02:58Z</time>
      </trkpt>
      <trkpt lat="46.71415" lon="-1.95301">
        <ele>17</ele>
        <time>2018-04-21T09:03:58Z</time>
      </trkpt>
      <trkpt lat="46.71407" lon="-1.95298">
        <ele>17</ele>
        <time>2018-04-21T09:04:58Z</time>
      </trkpt>
      <trkpt lat="46.71405" lon="-1.95287">
        <ele>18</ele>
        <time>2018-04-21T09:05:58Z</time>
      </trkpt>
      <trkpt lat="46.71394" lon="-1.95287">
        <ele>18</ele>
        <time>2018-04-21T09:06:58Z</time>
      </trkpt>
      <trkpt lat="46.71362" lon="-1.95296">
        <ele>17</ele>
        <time>2018-04-21T09:07:58Z</time>
      </trkpt>
      <trkpt lat="46.71317" lon="-1.95297">
        <ele>17</ele>
        <time>2018-04-21T09:08:58Z</time>
      </trkpt>
      <trkpt lat="46.71282" lon="-1.95295">
        <ele>17</ele>
        <time>2018-04-21T09:09:58Z</time>
      </trkpt>
      <trkpt lat="46.71282" lon="-1.95295">
        <ele>17</ele>
        <time>2018-04-21T09:10:58Z</time>
      </trkpt>
      <trkpt lat="46.71218" lon="-1.95291">
        <ele>18</ele>
        <time>2018-04-21T09:11:58Z</time>
      </trkpt>
      <trkpt lat="46.71178" lon="-1.95296">
        <ele>18</ele>
        <time>2018-04-21T09:12:58Z</time>
      </trkpt>
      <trkpt lat="46.71159" lon="-1.95293">
        <ele>17</ele>
        <time>2018-04-21T09:13:58Z</time>
      </trkpt>
      <trkpt lat="46.71092" lon="-1.95271">
        <ele>17</ele>
        <time>2018-04-21T09:14:58Z</time>
      </trkpt>
      <trkpt lat="46.7107" lon="-1.95261">
        <ele>17</ele>
        <time>2018-04-21T09:15:58Z</time>
      </trkpt>
      <trkpt lat="46.71037" lon="-1.95236">
        <ele>17</ele>
        <time>2018-04-21T09:16:58Z</time>
      </trkpt>
      <trkpt lat="46.71018" lon="-1.95227">
        <ele>17</ele>
        <time>2018-04-21T09:17:58Z</time>
      </trkpt>
      <trkpt lat="46.71005" lon="-1.95047">
        <ele>17</ele>
        <time>2018-04-21T09:18:58Z</time>
      </trkpt>
      <trkpt lat="46.70981" lon="-1.95052">
        <ele>16</ele>
        <time>2018-04-21T09:19:58Z</time>
      </trkpt>
      <trkpt lat="46.70945" lon="-1.95055">
        <ele>16</ele>
        <time>2018-04-21T09:20:58Z</time>
      </trkpt>
      <trkpt lat="46.70876" lon="-1.95054">
        <ele>16</ele>
        <time>2018-04-21T09:21:58Z</time>
      </trkpt>
      <trkpt lat="46.70824" lon="-1.95058">
        <ele>16</ele>
        <time>2018-04-21T09:22:58Z</time>
      </trkpt>
      <trkpt lat="46.70793" lon="-1.95065">
        <ele>16</ele>
        <time>2018-04-21T09:23:58Z</time>
      </trkpt>
      <trkpt lat="46.70706" lon="-1.95106">
        <ele>15</ele>
        <time>2018-04-21T09:24:58Z</time>
      </trkpt>
      <trkpt lat="46.70649" lon="-1.95125">
        <ele>14</ele>
        <time>2018-04-21T09:25:58Z</time>
      </trkpt>
      <trkpt lat="46.70611" lon="-1.9513">
        <ele>13</ele>
        <time>2018-04-21T09:26:58Z</time>
      </trkpt>
      <trkpt lat="46.70585" lon="-1.95129">
        <ele>13</ele>
        <time>2018-04-21T09:27:58Z</time>
      </trkpt>
      <trkpt lat="46.70521" lon="-1.9512">
        <ele>13</ele>
        <time>2018-04-21T09:28:58Z</time>
      </trkpt>
      <trkpt lat="46.70521" lon="-1.9512">
        <ele>13</ele>
        <time>2018-04-21T09:29:58Z</time>
      </trkpt>
      <trkpt lat="46.703" lon="-1.95085">
        <ele>8</ele>
        <time>2018-04-21T09:30:58Z</time>
      </trkpt>
      <trkpt lat="46.70155" lon="-1.9506">
        <ele>5</ele>
        <time>2018-04-21T09:31:58Z</time>
      </trkpt>
      <trkpt lat="46.70158" lon="-1.94877">
        <ele>2</ele>
        <time>2018-04-21T09:32:58Z</time>
      </trkpt>
      <trkpt lat="46.70164" lon="-1.94733">
        <ele>3</ele>
        <time>2018-04-21T09:33:58Z</time>
      </trkpt>
      <trkpt lat="46.70167" lon="-1.94686">
        <ele>4</ele>
        <time>2018-04-21T09:34:58Z</time>
      </trkpt>
      <trkpt lat="46.70162" lon="-1.94687">
        <ele>4</ele>
        <time>2018-04-21T09:35:58Z</time>
      </trkpt>
      <trkpt lat="46.70156" lon="-1.94682">
        <ele>4</ele>
        <time>2018-04-21T09:36:58Z</time>
      </trkpt>
      <trkpt lat="46.70154" lon="-1.94677">
        <ele>4</ele>
        <time>2018-04-21T09:37:58Z</time>
      </trkpt>
      <trkpt lat="46.70154" lon="-1.94666">
        <ele>4</ele>
        <time>2018-04-21T09:38:58Z</time>
      </trkpt>
      <trkpt lat="46.7016" lon="-1.94657">
        <ele>4</ele>
        <time>2018-04-21T09:39:58Z</time>
      </trkpt>
      <trkpt lat="46.70165" lon="-1.94656">
        <ele>4</ele>
        <time>2018-04-21T09:40:58Z</time>
      </trkpt>
      <trkpt lat="46.70165" lon="-1.94576">
        <ele>4</ele>
        <time>2018-04-21T09:41:58Z</time>
      </trkpt>
      <trkpt lat="46.70168" lon="-1.94427">
        <ele>4</ele>
        <time>2018-04-21T09:42:58Z</time>
      </trkpt>
      <trkpt lat="46.70183" lon="-1.94268">
        <ele>5</ele>
        <time>2018-04-21T09:43:58Z</time>
      </trkpt>
      <trkpt lat="46.70183" lon="-1.94256">
        <ele>5</ele>
        <time>2018-04-21T09:44:58Z</time>
      </trkpt>
      <trkpt lat="46.70151" lon="-1.93989">
        <ele>2</ele>
        <time>2018-04-21T09:45:58Z</time>
      </trkpt>
      <trkpt lat="46.7015" lon="-1.93956">
        <ele>3</ele>
        <time>2018-04-21T09:46:58Z</time>
      </trkpt>
      <trkpt lat="46.70147" lon="-1.93955">
        <ele>3</ele>
        <time>2018-04-21T09:47:58Z</time>
      </trkpt>
      <trkpt lat="46.70142" lon="-1.93948">
        <ele>3</ele>
        <time>2018-04-21T09:48:58Z</time>
      </trkpt>
      <trkpt lat="46.70142" lon="-1.93938">
        <ele>3</ele>
        <time>2018-04-21T09:49:58Z</time>
      </trkpt>
      <trkpt lat="46.70144" lon="-1.9393">
        <ele>3</ele>
        <time>2018-04-21T09:50:58Z</time>
      </trkpt>
      <trkpt lat="46.70148" lon="-1.93927">
        <ele>3</ele>
        <time>2018-04-21T09:51:58Z</time>
      </trkpt>
      <trkpt lat="46.70153" lon="-1.93925">
        <ele>3</ele>
        <time>2018-04-21T09:52:58Z</time>
      </trkpt>
      <trkpt lat="46.7019" lon="-1.93928">
        <ele>3</ele>
        <time>2018-04-21T09:53:58Z</time>
      </trkpt>
      <trkpt lat="46.70201" lon="-1.93927">
        <ele>3</ele>
        <time>2018-04-21T09:54:58Z</time>
      </trkpt>
      <trkpt lat="46.70221" lon="-1.93921">
        <ele>2</ele>
        <time>2018-04-21T09:55:58Z</time>
      </trkpt>
      <trkpt lat="46.70242" lon="-1.93906">
        <ele>2</ele>
        <time>2018-04-21T09:56:58Z</time>
      </trkpt>
      <trkpt lat="46.70244" lon="-1.93895">
        <ele>3</ele>
        <time>2018-04-21T09:57:58Z</time>
      </trkpt>
      <trkpt lat="46.70244" lon="-1.93888">
        <ele>3</ele>
        <time>2018-04-21T09:58:58Z</time>
      </trkpt>
      <trkpt lat="46.70242" lon="-1.93873">
        <ele>3</ele>
        <time>2018-04-21T09:59:58Z</time>
      </trkpt>
      <trkpt lat="46.70211" lon="-1.93766">
        <ele>3</ele>
        <time>2018-04-21T10:00:58Z</time>
      </trkpt>
      <trkpt lat="46.70135" lon="-1.93439">
        <ele>1</ele>
        <time>2018-04-21T10:01:58Z</time>
      </trkpt>
      <trkpt lat="46.70125" lon="-1.93409">
        <ele>1</ele>
        <time>2018-04-21T10:02:58Z</time>
      </trkpt>
      <trkpt lat="46.70116" lon="-1.93403">
        <ele>2</ele>
        <time>2018-04-21T10:03:58Z</time>
      </trkpt>
      <trkpt lat="46.70092" lon="-1.93408">
        <ele>2</ele>
        <time>2018-04-21T10:04:58Z</time>
      </trkpt>
      <trkpt lat="46.70064" lon="-1.93406">
        <ele>2</ele>
        <time>2018-04-21T10:05:58Z</time>
      </trkpt>
      <trkpt lat="46.70057" lon="-1.93416">
        <ele>2</ele>
        <time>2018-04-21T10:06:58Z</time>
      </trkpt>
      <trkpt lat="46.7005" lon="-1.93406">
        <ele>2</ele>
        <time>2018-04-21T10:07:58Z</time>
      </trkpt>
      <trkpt lat="46.70036" lon="-1.934">
        <ele>2</ele>
        <time>2018-04-21T10:08:58Z</time>
      </trkpt>
      <trkpt lat="46.70026" lon="-1.93389">
        <ele>3</ele>
        <time>2018-04-21T10:09:58Z</time>
      </trkpt>
      <trkpt lat="46.70018" lon="-1.93384">
        <ele>3</ele>
        <time>2018-04-21T10:10:58Z</time>
      </trkpt>
      <trkpt lat="46.69981" lon="-1.93367">
        <ele>3</ele>
        <time>2018-04-21T10:11:58Z</time>
      </trkpt>
      <trkpt lat="46.69973" lon="-1.93368">
        <ele>4</ele>
        <time>2018-04-21T10:12:58Z</time>
      </trkpt>
      <trkpt lat="46.69955" lon="-1.93377">
        <ele>4</ele>
        <time>2018-04-21T10:13:58Z</time>
      </trkpt>
      <trkpt lat="46.6994" lon="-1.9338">
        <ele>4</ele>
        <time>2018-04-21T10:14:58Z</time>
      </trkpt>
      <trkpt lat="46.69915" lon="-1.93381">
        <ele>4</ele>
        <time>2018-04-21T10:15:58Z</time>
      </trkpt>
      <trkpt lat="46.69915" lon="-1.93384">
        <ele>4</ele>
        <time>2018-04-21T10:16:58Z</time>
      </trkpt>
      <trkpt lat="46.6991" lon="-1.93388">
        <ele>4</ele>
        <time>2018-04-21T10:17:58Z</time>
      </trkpt>
      <trkpt lat="46.69907" lon="-1.93386">
        <ele>4</ele>
        <time>2018-04-21T10:18:58Z</time>
      </trkpt>
      <trkpt lat="46.69906" lon="-1.93381">
        <ele>5</ele>
        <time>2018-04-21T10:19:58Z</time>
      </trkpt>
      <trkpt lat="46.69888" lon="-1.93385">
        <ele>5</ele>
        <time>2018-04-21T10:20:58Z</time>
      </trkpt>
    </trkseg>
  </trk>
</gpx>